<?xml version="1.0" encoding="UTF-8" standalone="no" ?>
<gpx xmlns="http://www.topografix.com/GPX/1/1" xmlns:xsi="http://www.w3.org/2001/XMLSchema-instance" xsi:schemaLocation="http://www.topografix.com/GPX/1/1 http://www.topografix.com/GPX/1/1/gpx.xsd" version="1.1" creator="VisuGPX - https://www.visugpx.com">
  <metadata>
    <name>Idéal trotting (de Sylvie)</name>
    <desc><![CDATA[Idéal nus pieds, terrain de sable, beaux chemin... en trotting il fait environs 45 mns]]></desc>
  </metadata>
  <trk>
    <name><![CDATA[Idéal trotting (45mns, bon terrain, de Sylvie)]]></name>
    <trkseg>
      <trkpt lat="48.70821" lon="1.75887">
        <ele>173.19999694824</ele>
        <time>2011-08-04T11:33:33.000Z</time>
      </trkpt>
      <trkpt lat="48.70816" lon="1.75883">
        <ele>173</ele>
        <time>2011-08-04T11:33:38.000Z</time>
      </trkpt>
      <trkpt lat="48.70812" lon="1.75879">
        <ele>173</ele>
        <time>2011-08-04T11:33:43.000Z</time>
      </trkpt>
      <trkpt lat="48.70806" lon="1.75874">
        <ele>172.80000305176</ele>
        <time>2011-08-04T11:33:52.000Z</time>
      </trkpt>
      <trkpt lat="48.70782" lon="1.75849">
        <ele>172.60000610352</ele>
        <time>2011-08-04T11:36:09.000Z</time>
      </trkpt>
      <trkpt lat="48.70776" lon="1.75841">
        <ele>172.60000610352</ele>
        <time>2011-08-04T11:36:15.000Z</time>
      </trkpt>
      <trkpt lat="48.70771" lon="1.75835">
        <ele>172.60000610352</ele>
        <time>2011-08-04T11:36:20.000Z</time>
      </trkpt>
      <trkpt lat="48.70762" lon="1.75822">
        <ele>172.80000305176</ele>
        <time>2011-08-04T11:36:29.000Z</time>
      </trkpt>
      <trkpt lat="48.70755" lon="1.7581">
        <ele>173.19999694824</ele>
        <time>2011-08-04T11:36:37.000Z</time>
      </trkpt>
      <trkpt lat="48.70744" lon="1.75794">
        <ele>173.39999389648</ele>
        <time>2011-08-04T11:36:48.000Z</time>
      </trkpt>
      <trkpt lat="48.70736" lon="1.75782">
        <ele>173.39999389648</ele>
        <time>2011-08-04T11:36:57.000Z</time>
      </trkpt>
      <trkpt lat="48.70729" lon="1.75774">
        <ele>173.60000610352</ele>
        <time>2011-08-04T11:37:03.000Z</time>
      </trkpt>
      <trkpt lat="48.70725" lon="1.75768">
        <ele>173.60000610352</ele>
        <time>2011-08-04T11:37:07.000Z</time>
      </trkpt>
      <trkpt lat="48.70719" lon="1.7576">
        <ele>173.80000305176</ele>
        <time>2011-08-04T11:37:14.000Z</time>
      </trkpt>
      <trkpt lat="48.7071" lon="1.75749">
        <ele>173.80000305176</ele>
        <time>2011-08-04T11:37:22.000Z</time>
      </trkpt>
      <trkpt lat="48.707" lon="1.75735">
        <ele>174</ele>
        <time>2011-08-04T11:37:32.000Z</time>
      </trkpt>
      <trkpt lat="48.70691" lon="1.75723">
        <ele>174</ele>
        <time>2011-08-04T11:37:41.000Z</time>
      </trkpt>
      <trkpt lat="48.70684" lon="1.75715">
        <ele>174.19999694824</ele>
        <time>2011-08-04T11:37:47.000Z</time>
      </trkpt>
      <trkpt lat="48.70679" lon="1.75709">
        <ele>174.19999694824</ele>
        <time>2011-08-04T11:37:52.000Z</time>
      </trkpt>
      <trkpt lat="48.70677" lon="1.75706">
        <ele>174.19999694824</ele>
        <time>2011-08-04T11:37:54.000Z</time>
      </trkpt>
      <trkpt lat="48.70672" lon="1.75699">
        <ele>174.39999389648</ele>
        <time>2011-08-04T11:37:59.000Z</time>
      </trkpt>
      <trkpt lat="48.7067" lon="1.75698">
        <ele>174.39999389648</ele>
        <time>2011-08-04T11:38:00.000Z</time>
      </trkpt>
      <trkpt lat="48.70665" lon="1.75691">
        <ele>174.80000305176</ele>
        <time>2011-08-04T11:38:06.000Z</time>
      </trkpt>
      <trkpt lat="48.70659" lon="1.75687">
        <ele>175.39999389648</ele>
        <time>2011-08-04T11:38:11.000Z</time>
      </trkpt>
      <trkpt lat="48.70653" lon="1.75681">
        <ele>176.19999694824</ele>
        <time>2011-08-04T11:38:17.000Z</time>
      </trkpt>
      <trkpt lat="48.70643" lon="1.75675">
        <ele>177.39999389648</ele>
        <time>2011-08-04T11:38:24.000Z</time>
      </trkpt>
      <trkpt lat="48.7064" lon="1.75674">
        <ele>177.80000305176</ele>
        <time>2011-08-04T11:38:27.000Z</time>
      </trkpt>
      <trkpt lat="48.70639" lon="1.7567">
        <ele>178.19999694824</ele>
        <time>2011-08-04T11:38:32.000Z</time>
      </trkpt>
      <trkpt lat="48.70637" lon="1.75669">
        <ele>178.39999389648</ele>
        <time>2011-08-04T11:38:37.000Z</time>
      </trkpt>
      <trkpt lat="48.70636" lon="1.75664">
        <ele>178.60000610352</ele>
        <time>2011-08-04T11:39:16.000Z</time>
      </trkpt>
      <trkpt lat="48.70634" lon="1.75659">
        <ele>178.80000305176</ele>
        <time>2011-08-04T11:39:19.000Z</time>
      </trkpt>
      <trkpt lat="48.70631" lon="1.75652">
        <ele>179</ele>
        <time>2011-08-04T11:39:26.000Z</time>
      </trkpt>
      <trkpt lat="48.70627" lon="1.75649">
        <ele>179.39999389648</ele>
        <time>2011-08-04T11:39:32.000Z</time>
      </trkpt>
      <trkpt lat="48.70621" lon="1.75643">
        <ele>180</ele>
        <time>2011-08-04T11:39:39.000Z</time>
      </trkpt>
      <trkpt lat="48.70615" lon="1.75636">
        <ele>180.60000610352</ele>
        <time>2011-08-04T11:39:45.000Z</time>
      </trkpt>
      <trkpt lat="48.70609" lon="1.75628">
        <ele>181.19999694824</ele>
        <time>2011-08-04T11:39:52.000Z</time>
      </trkpt>
      <trkpt lat="48.70608" lon="1.75626">
        <ele>181.19999694824</ele>
        <time>2011-08-04T11:39:54.000Z</time>
      </trkpt>
      <trkpt lat="48.70602" lon="1.7562">
        <ele>181.80000305176</ele>
        <time>2011-08-04T11:39:59.000Z</time>
      </trkpt>
      <trkpt lat="48.70601" lon="1.75617">
        <ele>181.80000305176</ele>
        <time>2011-08-04T11:40:01.000Z</time>
      </trkpt>
      <trkpt lat="48.70597" lon="1.75612">
        <ele>182.19999694824</ele>
        <time>2011-08-04T11:40:05.000Z</time>
      </trkpt>
      <trkpt lat="48.70593" lon="1.75606">
        <ele>182.39999389648</ele>
        <time>2011-08-04T11:40:10.000Z</time>
      </trkpt>
      <trkpt lat="48.70592" lon="1.756">
        <ele>182.39999389648</ele>
        <time>2011-08-04T11:40:16.000Z</time>
      </trkpt>
      <trkpt lat="48.70587" lon="1.75593">
        <ele>182.80000305176</ele>
        <time>2011-08-04T11:40:21.000Z</time>
      </trkpt>
      <trkpt lat="48.70586" lon="1.75591">
        <ele>182.80000305176</ele>
        <time>2011-08-04T11:40:23.000Z</time>
      </trkpt>
      <trkpt lat="48.7058" lon="1.75585">
        <ele>183</ele>
        <time>2011-08-04T11:40:29.000Z</time>
      </trkpt>
      <trkpt lat="48.70571" lon="1.75578">
        <ele>182.60000610352</ele>
        <time>2011-08-04T11:40:36.000Z</time>
      </trkpt>
      <trkpt lat="48.70561" lon="1.75572">
        <ele>182.39999389648</ele>
        <time>2011-08-04T11:40:43.000Z</time>
      </trkpt>
      <trkpt lat="48.70557" lon="1.75567">
        <ele>182.19999694824</ele>
        <time>2011-08-04T11:40:48.000Z</time>
      </trkpt>
      <trkpt lat="48.70555" lon="1.75566">
        <ele>182</ele>
        <time>2011-08-04T11:40:49.000Z</time>
      </trkpt>
      <trkpt lat="48.70553" lon="1.75563">
        <ele>182</ele>
        <time>2011-08-04T11:40:52.000Z</time>
      </trkpt>
      <trkpt lat="48.70552" lon="1.7556">
        <ele>181.60000610352</ele>
        <time>2011-08-04T11:40:55.000Z</time>
      </trkpt>
      <trkpt lat="48.70543" lon="1.75553">
        <ele>181.39999389648</ele>
        <time>2011-08-04T11:41:01.000Z</time>
      </trkpt>
      <trkpt lat="48.70542" lon="1.75551">
        <ele>181.39999389648</ele>
        <time>2011-08-04T11:41:04.000Z</time>
      </trkpt>
      <trkpt lat="48.70539" lon="1.75548">
        <ele>181.19999694824</ele>
        <time>2011-08-04T11:41:08.000Z</time>
      </trkpt>
      <trkpt lat="48.70533" lon="1.7554">
        <ele>181</ele>
        <time>2011-08-04T11:41:14.000Z</time>
      </trkpt>
      <trkpt lat="48.7053" lon="1.75531">
        <ele>180.60000610352</ele>
        <time>2011-08-04T11:41:20.000Z</time>
      </trkpt>
      <trkpt lat="48.7052" lon="1.75523">
        <ele>180.60000610352</ele>
        <time>2011-08-04T11:41:26.000Z</time>
      </trkpt>
      <trkpt lat="48.70517" lon="1.7552">
        <ele>180.60000610352</ele>
        <time>2011-08-04T11:41:28.000Z</time>
      </trkpt>
      <trkpt lat="48.70507" lon="1.75512">
        <ele>181</ele>
        <time>2011-08-04T11:41:35.000Z</time>
      </trkpt>
      <trkpt lat="48.705" lon="1.75504">
        <ele>181</ele>
        <time>2011-08-04T11:41:42.000Z</time>
      </trkpt>
      <trkpt lat="48.70498" lon="1.755">
        <ele>181</ele>
        <time>2011-08-04T11:41:48.000Z</time>
      </trkpt>
      <trkpt lat="48.70494" lon="1.75493">
        <ele>180.80000305176</ele>
        <time>2011-08-04T11:41:54.000Z</time>
      </trkpt>
      <trkpt lat="48.70492" lon="1.75489">
        <ele>180.60000610352</ele>
        <time>2011-08-04T11:41:57.000Z</time>
      </trkpt>
      <trkpt lat="48.70491" lon="1.75484">
        <ele>180.39999389648</ele>
        <time>2011-08-04T11:42:01.000Z</time>
      </trkpt>
      <trkpt lat="48.70488" lon="1.75478">
        <ele>180.19999694824</ele>
        <time>2011-08-04T11:42:08.000Z</time>
      </trkpt>
      <trkpt lat="48.70485" lon="1.75473">
        <ele>180</ele>
        <time>2011-08-04T11:42:13.000Z</time>
      </trkpt>
      <trkpt lat="48.70483" lon="1.75471">
        <ele>180</ele>
        <time>2011-08-04T11:42:15.000Z</time>
      </trkpt>
      <trkpt lat="48.70473" lon="1.75465">
        <ele>180.19999694824</ele>
        <time>2011-08-04T11:42:21.000Z</time>
      </trkpt>
      <trkpt lat="48.7047" lon="1.75462">
        <ele>180.19999694824</ele>
        <time>2011-08-04T11:42:24.000Z</time>
      </trkpt>
      <trkpt lat="48.7046" lon="1.75458">
        <ele>180.60000610352</ele>
        <time>2011-08-04T11:42:29.000Z</time>
      </trkpt>
      <trkpt lat="48.70455" lon="1.75456">
        <ele>180.80000305176</ele>
        <time>2011-08-04T11:42:32.000Z</time>
      </trkpt>
      <trkpt lat="48.7045" lon="1.75451">
        <ele>180.80000305176</ele>
        <time>2011-08-04T11:42:36.000Z</time>
      </trkpt>
      <trkpt lat="48.70447" lon="1.7545">
        <ele>181</ele>
        <time>2011-08-04T11:42:41.000Z</time>
      </trkpt>
      <trkpt lat="48.70444" lon="1.75448">
        <ele>181</ele>
        <time>2011-08-04T11:42:44.000Z</time>
      </trkpt>
      <trkpt lat="48.70441" lon="1.75445">
        <ele>181.19999694824</ele>
        <time>2011-08-04T11:42:47.000Z</time>
      </trkpt>
      <trkpt lat="48.70434" lon="1.7544">
        <ele>181.39999389648</ele>
        <time>2011-08-04T11:42:51.000Z</time>
      </trkpt>
      <trkpt lat="48.70432" lon="1.75438">
        <ele>181.39999389648</ele>
        <time>2011-08-04T11:42:53.000Z</time>
      </trkpt>
      <trkpt lat="48.70427" lon="1.75436">
        <ele>181.60000610352</ele>
        <time>2011-08-04T11:42:57.000Z</time>
      </trkpt>
      <trkpt lat="48.70416" lon="1.75429">
        <ele>182.19999694824</ele>
        <time>2011-08-04T11:43:03.000Z</time>
      </trkpt>
      <trkpt lat="48.70412" lon="1.75426">
        <ele>182</ele>
        <time>2011-08-04T11:43:06.000Z</time>
      </trkpt>
      <trkpt lat="48.70405" lon="1.75423">
        <ele>181.80000305176</ele>
        <time>2011-08-04T11:43:13.000Z</time>
      </trkpt>
      <trkpt lat="48.70404" lon="1.75423">
        <ele>181.80000305176</ele>
        <time>2011-08-04T11:43:17.000Z</time>
      </trkpt>
      <trkpt lat="48.70405" lon="1.75422">
        <ele>181.80000305176</ele>
        <time>2011-08-04T11:43:23.000Z</time>
      </trkpt>
      <trkpt lat="48.70406" lon="1.75422">
        <ele>181.80000305176</ele>
        <time>2011-08-04T11:43:24.000Z</time>
      </trkpt>
      <trkpt lat="48.70406" lon="1.75422">
        <ele>181.80000305176</ele>
        <time>2011-08-04T11:43:25.000Z</time>
      </trkpt>
      <trkpt lat="48.70402" lon="1.75419">
        <ele>181.80000305176</ele>
        <time>2011-08-04T11:43:32.000Z</time>
      </trkpt>
      <trkpt lat="48.70401" lon="1.75419">
        <ele>181.80000305176</ele>
        <time>2011-08-04T11:43:34.000Z</time>
      </trkpt>
      <trkpt lat="48.70392" lon="1.75415">
        <ele>181.60000610352</ele>
        <time>2011-08-04T11:43:58.000Z</time>
      </trkpt>
      <trkpt lat="48.70387" lon="1.75409">
        <ele>181.39999389648</ele>
        <time>2011-08-04T11:44:01.000Z</time>
      </trkpt>
      <trkpt lat="48.70379" lon="1.75405">
        <ele>181.19999694824</ele>
        <time>2011-08-04T11:44:06.000Z</time>
      </trkpt>
      <trkpt lat="48.70374" lon="1.75402">
        <ele>181</ele>
        <time>2011-08-04T11:44:12.000Z</time>
      </trkpt>
      <trkpt lat="48.70364" lon="1.75396">
        <ele>180.80000305176</ele>
        <time>2011-08-04T11:44:19.000Z</time>
      </trkpt>
      <trkpt lat="48.70359" lon="1.75391">
        <ele>180.80000305176</ele>
        <time>2011-08-04T11:44:25.000Z</time>
      </trkpt>
      <trkpt lat="48.70356" lon="1.75387">
        <ele>180.80000305176</ele>
        <time>2011-08-04T11:44:29.000Z</time>
      </trkpt>
      <trkpt lat="48.70348" lon="1.75377">
        <ele>180.80000305176</ele>
        <time>2011-08-04T11:44:37.000Z</time>
      </trkpt>
      <trkpt lat="48.70345" lon="1.75374">
        <ele>180.80000305176</ele>
        <time>2011-08-04T11:44:40.000Z</time>
      </trkpt>
      <trkpt lat="48.70344" lon="1.75373">
        <ele>180.80000305176</ele>
        <time>2011-08-04T11:44:43.000Z</time>
      </trkpt>
      <trkpt lat="48.70338" lon="1.75368">
        <ele>180.80000305176</ele>
        <time>2011-08-04T11:44:50.000Z</time>
      </trkpt>
      <trkpt lat="48.70333" lon="1.75365">
        <ele>180.80000305176</ele>
        <time>2011-08-04T11:44:53.000Z</time>
      </trkpt>
      <trkpt lat="48.70325" lon="1.75357">
        <ele>180.60000610352</ele>
        <time>2011-08-04T11:45:03.000Z</time>
      </trkpt>
      <trkpt lat="48.70316" lon="1.75346">
        <ele>180.39999389648</ele>
        <time>2011-08-04T11:45:11.000Z</time>
      </trkpt>
      <trkpt lat="48.70314" lon="1.7534">
        <ele>180.39999389648</ele>
        <time>2011-08-04T11:45:17.000Z</time>
      </trkpt>
      <trkpt lat="48.70314" lon="1.75339">
        <ele>180.39999389648</ele>
        <time>2011-08-04T11:45:19.000Z</time>
      </trkpt>
      <trkpt lat="48.70275" lon="1.75288">
        <ele>180</ele>
        <time>2011-08-04T11:48:01.000Z</time>
      </trkpt>
      <trkpt lat="48.70269" lon="1.75283">
        <ele>180</ele>
        <time>2011-08-04T11:48:07.000Z</time>
      </trkpt>
      <trkpt lat="48.70266" lon="1.75282">
        <ele>179.80000305176</ele>
        <time>2011-08-04T11:48:12.000Z</time>
      </trkpt>
      <trkpt lat="48.70259" lon="1.75275">
        <ele>179.80000305176</ele>
        <time>2011-08-04T11:48:19.000Z</time>
      </trkpt>
      <trkpt lat="48.7025" lon="1.75265">
        <ele>179.80000305176</ele>
        <time>2011-08-04T11:48:28.000Z</time>
      </trkpt>
      <trkpt lat="48.70246" lon="1.75261">
        <ele>179.60000610352</ele>
        <time>2011-08-04T11:48:32.000Z</time>
      </trkpt>
      <trkpt lat="48.70239" lon="1.75257">
        <ele>179.19999694824</ele>
        <time>2011-08-04T11:48:38.000Z</time>
      </trkpt>
      <trkpt lat="48.70237" lon="1.75256">
        <ele>179.19999694824</ele>
        <time>2011-08-04T11:48:40.000Z</time>
      </trkpt>
      <trkpt lat="48.70232" lon="1.75254">
        <ele>179</ele>
        <time>2011-08-04T11:48:44.000Z</time>
      </trkpt>
      <trkpt lat="48.70225" lon="1.75252">
        <ele>178.60000610352</ele>
        <time>2011-08-04T11:48:51.000Z</time>
      </trkpt>
      <trkpt lat="48.70222" lon="1.75254">
        <ele>178.60000610352</ele>
        <time>2011-08-04T11:48:54.000Z</time>
      </trkpt>
      <trkpt lat="48.70215" lon="1.75256">
        <ele>178.19999694824</ele>
        <time>2011-08-04T11:49:00.000Z</time>
      </trkpt>
      <trkpt lat="48.70209" lon="1.75256">
        <ele>177.80000305176</ele>
        <time>2011-08-04T11:49:04.000Z</time>
      </trkpt>
      <trkpt lat="48.70198" lon="1.75259">
        <ele>177.39999389648</ele>
        <time>2011-08-04T11:49:11.000Z</time>
      </trkpt>
      <trkpt lat="48.70186" lon="1.75264">
        <ele>176.80000305176</ele>
        <time>2011-08-04T11:49:19.000Z</time>
      </trkpt>
      <trkpt lat="48.70174" lon="1.75267">
        <ele>176.19999694824</ele>
        <time>2011-08-04T11:49:27.000Z</time>
      </trkpt>
      <trkpt lat="48.70168" lon="1.75267">
        <ele>176</ele>
        <time>2011-08-04T11:49:32.000Z</time>
      </trkpt>
      <trkpt lat="48.70157" lon="1.75274">
        <ele>175.80000305176</ele>
        <time>2011-08-04T11:49:39.000Z</time>
      </trkpt>
      <trkpt lat="48.7015" lon="1.75281">
        <ele>175.60000610352</ele>
        <time>2011-08-04T11:49:46.000Z</time>
      </trkpt>
      <trkpt lat="48.70148" lon="1.75282">
        <ele>175.60000610352</ele>
        <time>2011-08-04T11:49:48.000Z</time>
      </trkpt>
      <trkpt lat="48.70138" lon="1.75284">
        <ele>175.39999389648</ele>
        <time>2011-08-04T11:49:56.000Z</time>
      </trkpt>
      <trkpt lat="48.70133" lon="1.75286">
        <ele>175.39999389648</ele>
        <time>2011-08-04T11:49:59.000Z</time>
      </trkpt>
      <trkpt lat="48.70126" lon="1.75289">
        <ele>175.19999694824</ele>
        <time>2011-08-04T11:50:05.000Z</time>
      </trkpt>
      <trkpt lat="48.70117" lon="1.75294">
        <ele>175</ele>
        <time>2011-08-04T11:50:12.000Z</time>
      </trkpt>
      <trkpt lat="48.7011" lon="1.75296">
        <ele>174.80000305176</ele>
        <time>2011-08-04T11:50:18.000Z</time>
      </trkpt>
      <trkpt lat="48.70107" lon="1.75299">
        <ele>174.60000610352</ele>
        <time>2011-08-04T11:50:22.000Z</time>
      </trkpt>
      <trkpt lat="48.70102" lon="1.75303">
        <ele>174.39999389648</ele>
        <time>2011-08-04T11:50:28.000Z</time>
      </trkpt>
      <trkpt lat="48.70099" lon="1.75304">
        <ele>174.39999389648</ele>
        <time>2011-08-04T11:50:30.000Z</time>
      </trkpt>
      <trkpt lat="48.70094" lon="1.75308">
        <ele>174</ele>
        <time>2011-08-04T11:50:35.000Z</time>
      </trkpt>
      <trkpt lat="48.70092" lon="1.75312">
        <ele>173.80000305176</ele>
        <time>2011-08-04T11:50:39.000Z</time>
      </trkpt>
      <trkpt lat="48.70093" lon="1.75314">
        <ele>173.80000305176</ele>
        <time>2011-08-04T11:50:41.000Z</time>
      </trkpt>
      <trkpt lat="48.70084" lon="1.75318">
        <ele>173.39999389648</ele>
        <time>2011-08-04T11:50:47.000Z</time>
      </trkpt>
      <trkpt lat="48.70079" lon="1.75319">
        <ele>173.39999389648</ele>
        <time>2011-08-04T11:50:49.000Z</time>
      </trkpt>
      <trkpt lat="48.70071" lon="1.75324">
        <ele>173</ele>
        <time>2011-08-04T11:50:55.000Z</time>
      </trkpt>
      <trkpt lat="48.70068" lon="1.75323">
        <ele>173</ele>
        <time>2011-08-04T11:50:57.000Z</time>
      </trkpt>
      <trkpt lat="48.70066" lon="1.75324">
        <ele>173</ele>
        <time>2011-08-04T11:50:59.000Z</time>
      </trkpt>
      <trkpt lat="48.70058" lon="1.75325">
        <ele>172.80000305176</ele>
        <time>2011-08-04T11:51:05.000Z</time>
      </trkpt>
      <trkpt lat="48.70052" lon="1.75327">
        <ele>172.80000305176</ele>
        <time>2011-08-04T11:51:11.000Z</time>
      </trkpt>
      <trkpt lat="48.70048" lon="1.75328">
        <ele>172.60000610352</ele>
        <time>2011-08-04T11:51:14.000Z</time>
      </trkpt>
      <trkpt lat="48.70038" lon="1.75336">
        <ele>172.19999694824</ele>
        <time>2011-08-04T11:51:21.000Z</time>
      </trkpt>
      <trkpt lat="48.70026" lon="1.7534">
        <ele>171.80000305176</ele>
        <time>2011-08-04T11:51:29.000Z</time>
      </trkpt>
      <trkpt lat="48.70017" lon="1.75345">
        <ele>171.60000610352</ele>
        <time>2011-08-04T11:51:35.000Z</time>
      </trkpt>
      <trkpt lat="48.70011" lon="1.75349">
        <ele>171.39999389648</ele>
        <time>2011-08-04T11:51:39.000Z</time>
      </trkpt>
      <trkpt lat="48.70003" lon="1.75351">
        <ele>171.19999694824</ele>
        <time>2011-08-04T11:51:45.000Z</time>
      </trkpt>
      <trkpt lat="48.69994" lon="1.75351">
        <ele>171.39999389648</ele>
        <time>2011-08-04T11:51:50.000Z</time>
      </trkpt>
      <trkpt lat="48.69987" lon="1.75355">
        <ele>171.39999389648</ele>
        <time>2011-08-04T11:51:55.000Z</time>
      </trkpt>
      <trkpt lat="48.69986" lon="1.75355">
        <ele>171.39999389648</ele>
        <time>2011-08-04T11:51:56.000Z</time>
      </trkpt>
      <trkpt lat="48.69979" lon="1.75359">
        <ele>171.39999389648</ele>
        <time>2011-08-04T11:52:02.000Z</time>
      </trkpt>
      <trkpt lat="48.69968" lon="1.75365">
        <ele>171.39999389648</ele>
        <time>2011-08-04T11:52:10.000Z</time>
      </trkpt>
      <trkpt lat="48.69963" lon="1.75367">
        <ele>171.39999389648</ele>
        <time>2011-08-04T11:52:14.000Z</time>
      </trkpt>
      <trkpt lat="48.69953" lon="1.7537">
        <ele>171.60000610352</ele>
        <time>2011-08-04T11:52:22.000Z</time>
      </trkpt>
      <trkpt lat="48.69947" lon="1.75373">
        <ele>171.80000305176</ele>
        <time>2011-08-04T11:52:29.000Z</time>
      </trkpt>
      <trkpt lat="48.69941" lon="1.75376">
        <ele>171.80000305176</ele>
        <time>2011-08-04T11:52:33.000Z</time>
      </trkpt>
      <trkpt lat="48.69929" lon="1.75379">
        <ele>172</ele>
        <time>2011-08-04T11:52:40.000Z</time>
      </trkpt>
      <trkpt lat="48.69925" lon="1.75381">
        <ele>172.19999694824</ele>
        <time>2011-08-04T11:52:44.000Z</time>
      </trkpt>
      <trkpt lat="48.69916" lon="1.75387">
        <ele>172.19999694824</ele>
        <time>2011-08-04T11:52:52.000Z</time>
      </trkpt>
      <trkpt lat="48.69908" lon="1.75391">
        <ele>172</ele>
        <time>2011-08-04T11:52:58.000Z</time>
      </trkpt>
      <trkpt lat="48.69907" lon="1.75392">
        <ele>172</ele>
        <time>2011-08-04T11:52:59.000Z</time>
      </trkpt>
      <trkpt lat="48.69905" lon="1.75393">
        <ele>172</ele>
        <time>2011-08-04T11:53:01.000Z</time>
      </trkpt>
      <trkpt lat="48.69898" lon="1.75397">
        <ele>171.80000305176</ele>
        <time>2011-08-04T11:53:08.000Z</time>
      </trkpt>
      <trkpt lat="48.69889" lon="1.754">
        <ele>171.60000610352</ele>
        <time>2011-08-04T11:53:15.000Z</time>
      </trkpt>
      <trkpt lat="48.69885" lon="1.75403">
        <ele>171.39999389648</ele>
        <time>2011-08-04T11:53:18.000Z</time>
      </trkpt>
      <trkpt lat="48.69877" lon="1.75407">
        <ele>171.19999694824</ele>
        <time>2011-08-04T11:53:24.000Z</time>
      </trkpt>
      <trkpt lat="48.69868" lon="1.75413">
        <ele>170.80000305176</ele>
        <time>2011-08-04T11:53:31.000Z</time>
      </trkpt>
      <trkpt lat="48.69861" lon="1.75416">
        <ele>170.60000610352</ele>
        <time>2011-08-04T11:53:38.000Z</time>
      </trkpt>
      <trkpt lat="48.69856" lon="1.75418">
        <ele>170.39999389648</ele>
        <time>2011-08-04T11:53:42.000Z</time>
      </trkpt>
      <trkpt lat="48.69849" lon="1.7542">
        <ele>170.19999694824</ele>
        <time>2011-08-04T11:53:47.000Z</time>
      </trkpt>
      <trkpt lat="48.69842" lon="1.75423">
        <ele>169.80000305176</ele>
        <time>2011-08-04T11:53:53.000Z</time>
      </trkpt>
      <trkpt lat="48.69835" lon="1.75426">
        <ele>169.60000610352</ele>
        <time>2011-08-04T11:53:58.000Z</time>
      </trkpt>
      <trkpt lat="48.69834" lon="1.75426">
        <ele>169.60000610352</ele>
        <time>2011-08-04T11:53:59.000Z</time>
      </trkpt>
      <trkpt lat="48.69825" lon="1.75434">
        <ele>169</ele>
        <time>2011-08-04T11:54:06.000Z</time>
      </trkpt>
      <trkpt lat="48.69816" lon="1.75441">
        <ele>168.39999389648</ele>
        <time>2011-08-04T11:54:12.000Z</time>
      </trkpt>
      <trkpt lat="48.6981" lon="1.75445">
        <ele>168</ele>
        <time>2011-08-04T11:54:17.000Z</time>
      </trkpt>
      <trkpt lat="48.69799" lon="1.7545">
        <ele>167.39999389648</ele>
        <time>2011-08-04T11:54:24.000Z</time>
      </trkpt>
      <trkpt lat="48.6979" lon="1.75453">
        <ele>166.80000305176</ele>
        <time>2011-08-04T11:54:30.000Z</time>
      </trkpt>
      <trkpt lat="48.69786" lon="1.75455">
        <ele>166.60000610352</ele>
        <time>2011-08-04T11:54:33.000Z</time>
      </trkpt>
      <trkpt lat="48.69781" lon="1.75458">
        <ele>166.19999694824</ele>
        <time>2011-08-04T11:54:37.000Z</time>
      </trkpt>
      <trkpt lat="48.69777" lon="1.75458">
        <ele>166</ele>
        <time>2011-08-04T11:54:40.000Z</time>
      </trkpt>
      <trkpt lat="48.69767" lon="1.75461">
        <ele>165.60000610352</ele>
        <time>2011-08-04T11:54:47.000Z</time>
      </trkpt>
      <trkpt lat="48.69757" lon="1.75467">
        <ele>164.80000305176</ele>
        <time>2011-08-04T11:54:54.000Z</time>
      </trkpt>
      <trkpt lat="48.69748" lon="1.75474">
        <ele>164</ele>
        <time>2011-08-04T11:55:00.000Z</time>
      </trkpt>
      <trkpt lat="48.69739" lon="1.75476">
        <ele>163.60000610352</ele>
        <time>2011-08-04T11:55:05.000Z</time>
      </trkpt>
      <trkpt lat="48.69726" lon="1.7548">
        <ele>162.60000610352</ele>
        <time>2011-08-04T11:55:13.000Z</time>
      </trkpt>
      <trkpt lat="48.69714" lon="1.75485">
        <ele>161.80000305176</ele>
        <time>2011-08-04T11:55:21.000Z</time>
      </trkpt>
      <trkpt lat="48.69705" lon="1.75489">
        <ele>161.19999694824</ele>
        <time>2011-08-04T11:55:27.000Z</time>
      </trkpt>
      <trkpt lat="48.69697" lon="1.75491">
        <ele>160.80000305176</ele>
        <time>2011-08-04T11:55:32.000Z</time>
      </trkpt>
      <trkpt lat="48.69687" lon="1.75496">
        <ele>160</ele>
        <time>2011-08-04T11:55:39.000Z</time>
      </trkpt>
      <trkpt lat="48.6968" lon="1.75499">
        <ele>159.60000610352</ele>
        <time>2011-08-04T11:55:44.000Z</time>
      </trkpt>
      <trkpt lat="48.69663" lon="1.75506">
        <ele>158.80000305176</ele>
        <time>2011-08-04T11:55:56.000Z</time>
      </trkpt>
      <trkpt lat="48.6965" lon="1.75514">
        <ele>158.19999694824</ele>
        <time>2011-08-04T11:56:06.000Z</time>
      </trkpt>
      <trkpt lat="48.69634" lon="1.75521">
        <ele>157.60000610352</ele>
        <time>2011-08-04T11:56:17.000Z</time>
      </trkpt>
      <trkpt lat="48.69621" lon="1.75527">
        <ele>157.19999694824</ele>
        <time>2011-08-04T11:56:27.000Z</time>
      </trkpt>
      <trkpt lat="48.69612" lon="1.75531">
        <ele>156.80000305176</ele>
        <time>2011-08-04T11:56:34.000Z</time>
      </trkpt>
      <trkpt lat="48.69599" lon="1.75537">
        <ele>156.39999389648</ele>
        <time>2011-08-04T11:56:44.000Z</time>
      </trkpt>
      <trkpt lat="48.69587" lon="1.75544">
        <ele>156</ele>
        <time>2011-08-04T11:56:54.000Z</time>
      </trkpt>
      <trkpt lat="48.69579" lon="1.75545">
        <ele>155.80000305176</ele>
        <time>2011-08-04T11:57:00.000Z</time>
      </trkpt>
      <trkpt lat="48.69565" lon="1.7555">
        <ele>155.80000305176</ele>
        <time>2011-08-04T11:57:10.000Z</time>
      </trkpt>
      <trkpt lat="48.69558" lon="1.75553">
        <ele>155.60000610352</ele>
        <time>2011-08-04T11:57:14.000Z</time>
      </trkpt>
      <trkpt lat="48.69545" lon="1.75558">
        <ele>155.60000610352</ele>
        <time>2011-08-04T11:57:23.000Z</time>
      </trkpt>
      <trkpt lat="48.69534" lon="1.75564">
        <ele>155.60000610352</ele>
        <time>2011-08-04T11:57:30.000Z</time>
      </trkpt>
      <trkpt lat="48.69521" lon="1.75571">
        <ele>155.60000610352</ele>
        <time>2011-08-04T11:57:39.000Z</time>
      </trkpt>
      <trkpt lat="48.69507" lon="1.75577">
        <ele>155.80000305176</ele>
        <time>2011-08-04T11:57:49.000Z</time>
      </trkpt>
      <trkpt lat="48.69498" lon="1.75583">
        <ele>156</ele>
        <time>2011-08-04T11:57:56.000Z</time>
      </trkpt>
      <trkpt lat="48.69484" lon="1.7559">
        <ele>157</ele>
        <time>2011-08-04T11:58:06.000Z</time>
      </trkpt>
      <trkpt lat="48.69475" lon="1.75593">
        <ele>157.60000610352</ele>
        <time>2011-08-04T11:58:12.000Z</time>
      </trkpt>
      <trkpt lat="48.69461" lon="1.756">
        <ele>158.39999389648</ele>
        <time>2011-08-04T11:58:22.000Z</time>
      </trkpt>
      <trkpt lat="48.69448" lon="1.75604">
        <ele>159.19999694824</ele>
        <time>2011-08-04T11:58:32.000Z</time>
      </trkpt>
      <trkpt lat="48.69438" lon="1.75605">
        <ele>159.80000305176</ele>
        <time>2011-08-04T11:58:40.000Z</time>
      </trkpt>
      <trkpt lat="48.69425" lon="1.75606">
        <ele>160.39999389648</ele>
        <time>2011-08-04T11:58:49.000Z</time>
      </trkpt>
      <trkpt lat="48.69414" lon="1.75607">
        <ele>160.80000305176</ele>
        <time>2011-08-04T11:58:57.000Z</time>
      </trkpt>
      <trkpt lat="48.69403" lon="1.75606">
        <ele>160.80000305176</ele>
        <time>2011-08-04T11:59:05.000Z</time>
      </trkpt>
      <trkpt lat="48.69393" lon="1.75605">
        <ele>160.80000305176</ele>
        <time>2011-08-04T11:59:13.000Z</time>
      </trkpt>
      <trkpt lat="48.69383" lon="1.75603">
        <ele>161</ele>
        <time>2011-08-04T11:59:21.000Z</time>
      </trkpt>
      <trkpt lat="48.69371" lon="1.75604">
        <ele>161</ele>
        <time>2011-08-04T11:59:30.000Z</time>
      </trkpt>
      <trkpt lat="48.69365" lon="1.75603">
        <ele>161</ele>
        <time>2011-08-04T11:59:35.000Z</time>
      </trkpt>
      <trkpt lat="48.69358" lon="1.75604">
        <ele>161.19999694824</ele>
        <time>2011-08-04T11:59:40.000Z</time>
      </trkpt>
      <trkpt lat="48.69349" lon="1.756">
        <ele>161.19999694824</ele>
        <time>2011-08-04T11:59:49.000Z</time>
      </trkpt>
      <trkpt lat="48.69344" lon="1.75598">
        <ele>161.19999694824</ele>
        <time>2011-08-04T11:59:53.000Z</time>
      </trkpt>
      <trkpt lat="48.6934" lon="1.75604">
        <ele>161.39999389648</ele>
        <time>2011-08-04T11:59:57.000Z</time>
      </trkpt>
      <trkpt lat="48.69337" lon="1.75611">
        <ele>161.60000610352</ele>
        <time>2011-08-04T12:00:01.000Z</time>
      </trkpt>
      <trkpt lat="48.69331" lon="1.7562">
        <ele>161.60000610352</ele>
        <time>2011-08-04T12:00:07.000Z</time>
      </trkpt>
      <trkpt lat="48.69328" lon="1.75629">
        <ele>161.80000305176</ele>
        <time>2011-08-04T12:00:12.000Z</time>
      </trkpt>
      <trkpt lat="48.69327" lon="1.75631">
        <ele>161.80000305176</ele>
        <time>2011-08-04T12:00:13.000Z</time>
      </trkpt>
      <trkpt lat="48.69319" lon="1.75642">
        <ele>161.60000610352</ele>
        <time>2011-08-04T12:00:20.000Z</time>
      </trkpt>
      <trkpt lat="48.69314" lon="1.7565">
        <ele>161.60000610352</ele>
        <time>2011-08-04T12:00:25.000Z</time>
      </trkpt>
      <trkpt lat="48.69313" lon="1.75653">
        <ele>161.60000610352</ele>
        <time>2011-08-04T12:00:27.000Z</time>
      </trkpt>
      <trkpt lat="48.69311" lon="1.75664">
        <ele>161.80000305176</ele>
        <time>2011-08-04T12:00:33.000Z</time>
      </trkpt>
      <trkpt lat="48.69307" lon="1.75681">
        <ele>161.80000305176</ele>
        <time>2011-08-04T12:00:41.000Z</time>
      </trkpt>
      <trkpt lat="48.69304" lon="1.75696">
        <ele>162</ele>
        <time>2011-08-04T12:00:48.000Z</time>
      </trkpt>
      <trkpt lat="48.69303" lon="1.75708">
        <ele>162.19999694824</ele>
        <time>2011-08-04T12:00:53.000Z</time>
      </trkpt>
      <trkpt lat="48.69301" lon="1.75714">
        <ele>162.19999694824</ele>
        <time>2011-08-04T12:00:56.000Z</time>
      </trkpt>
      <trkpt lat="48.693" lon="1.75729">
        <ele>162.39999389648</ele>
        <time>2011-08-04T12:01:04.000Z</time>
      </trkpt>
      <trkpt lat="48.69299" lon="1.75731">
        <ele>162.39999389648</ele>
        <time>2011-08-04T12:01:05.000Z</time>
      </trkpt>
      <trkpt lat="48.69295" lon="1.75746">
        <ele>162.39999389648</ele>
        <time>2011-08-04T12:01:13.000Z</time>
      </trkpt>
      <trkpt lat="48.69292" lon="1.75757">
        <ele>162.60000610352</ele>
        <time>2011-08-04T12:01:19.000Z</time>
      </trkpt>
      <trkpt lat="48.69291" lon="1.75763">
        <ele>162.60000610352</ele>
        <time>2011-08-04T12:01:22.000Z</time>
      </trkpt>
      <trkpt lat="48.69286" lon="1.7578">
        <ele>163</ele>
        <time>2011-08-04T12:01:30.000Z</time>
      </trkpt>
      <trkpt lat="48.69284" lon="1.75798">
        <ele>163.39999389648</ele>
        <time>2011-08-04T12:01:38.000Z</time>
      </trkpt>
      <trkpt lat="48.69283" lon="1.75806">
        <ele>163.60000610352</ele>
        <time>2011-08-04T12:01:42.000Z</time>
      </trkpt>
      <trkpt lat="48.69282" lon="1.75816">
        <ele>163.80000305176</ele>
        <time>2011-08-04T12:01:47.000Z</time>
      </trkpt>
      <trkpt lat="48.69281" lon="1.75822">
        <ele>164</ele>
        <time>2011-08-04T12:01:50.000Z</time>
      </trkpt>
      <trkpt lat="48.69277" lon="1.75829">
        <ele>164</ele>
        <time>2011-08-04T12:01:55.000Z</time>
      </trkpt>
      <trkpt lat="48.69266" lon="1.75832">
        <ele>164</ele>
        <time>2011-08-04T12:02:03.000Z</time>
      </trkpt>
      <trkpt lat="48.6925" lon="1.75831">
        <ele>163.80000305176</ele>
        <time>2011-08-04T12:02:08.000Z</time>
      </trkpt>
      <trkpt lat="48.69235" lon="1.75831">
        <ele>164</ele>
        <time>2011-08-04T12:02:12.000Z</time>
      </trkpt>
      <trkpt lat="48.69222" lon="1.75831">
        <ele>164.19999694824</ele>
        <time>2011-08-04T12:02:16.000Z</time>
      </trkpt>
      <trkpt lat="48.69204" lon="1.75832">
        <ele>164.39999389648</ele>
        <time>2011-08-04T12:02:21.000Z</time>
      </trkpt>
      <trkpt lat="48.69182" lon="1.75828">
        <ele>164.60000610352</ele>
        <time>2011-08-04T12:02:26.000Z</time>
      </trkpt>
      <trkpt lat="48.69161" lon="1.75827">
        <ele>165</ele>
        <time>2011-08-04T12:02:32.000Z</time>
      </trkpt>
      <trkpt lat="48.69147" lon="1.75827">
        <ele>165.19999694824</ele>
        <time>2011-08-04T12:02:36.000Z</time>
      </trkpt>
      <trkpt lat="48.69128" lon="1.7583">
        <ele>165.39999389648</ele>
        <time>2011-08-04T12:02:41.000Z</time>
      </trkpt>
      <trkpt lat="48.69112" lon="1.75829">
        <ele>165.60000610352</ele>
        <time>2011-08-04T12:02:45.000Z</time>
      </trkpt>
      <trkpt lat="48.69097" lon="1.75825">
        <ele>165.80000305176</ele>
        <time>2011-08-04T12:02:49.000Z</time>
      </trkpt>
      <trkpt lat="48.69066" lon="1.75813">
        <ele>166</ele>
        <time>2011-08-04T12:02:57.000Z</time>
      </trkpt>
      <trkpt lat="48.69048" lon="1.75807">
        <ele>166</ele>
        <time>2011-08-04T12:03:02.000Z</time>
      </trkpt>
      <trkpt lat="48.6903" lon="1.75799">
        <ele>166</ele>
        <time>2011-08-04T12:03:07.000Z</time>
      </trkpt>
      <trkpt lat="48.69012" lon="1.7579">
        <ele>165.80000305176</ele>
        <time>2011-08-04T12:03:12.000Z</time>
      </trkpt>
      <trkpt lat="48.68993" lon="1.75786">
        <ele>165.80000305176</ele>
        <time>2011-08-04T12:03:17.000Z</time>
      </trkpt>
      <trkpt lat="48.6898" lon="1.75788">
        <ele>166</ele>
        <time>2011-08-04T12:03:21.000Z</time>
      </trkpt>
      <trkpt lat="48.68966" lon="1.75791">
        <ele>166</ele>
        <time>2011-08-04T12:03:25.000Z</time>
      </trkpt>
      <trkpt lat="48.68946" lon="1.75796">
        <ele>166.39999389648</ele>
        <time>2011-08-04T12:03:30.000Z</time>
      </trkpt>
      <trkpt lat="48.68929" lon="1.75804">
        <ele>166.39999389648</ele>
        <time>2011-08-04T12:03:35.000Z</time>
      </trkpt>
      <trkpt lat="48.68913" lon="1.75806">
        <ele>166.39999389648</ele>
        <time>2011-08-04T12:03:39.000Z</time>
      </trkpt>
      <trkpt lat="48.68896" lon="1.75802">
        <ele>165.80000305176</ele>
        <time>2011-08-04T12:03:43.000Z</time>
      </trkpt>
      <trkpt lat="48.68883" lon="1.758">
        <ele>165.19999694824</ele>
        <time>2011-08-04T12:03:47.000Z</time>
      </trkpt>
      <trkpt lat="48.68868" lon="1.75798">
        <ele>164.80000305176</ele>
        <time>2011-08-04T12:03:51.000Z</time>
      </trkpt>
      <trkpt lat="48.68845" lon="1.75796">
        <ele>163.80000305176</ele>
        <time>2011-08-04T12:03:57.000Z</time>
      </trkpt>
      <trkpt lat="48.68837" lon="1.75795">
        <ele>163.60000610352</ele>
        <time>2011-08-04T12:03:59.000Z</time>
      </trkpt>
      <trkpt lat="48.68831" lon="1.75775">
        <ele>163.19999694824</ele>
        <time>2011-08-04T12:04:03.000Z</time>
      </trkpt>
      <trkpt lat="48.6884" lon="1.75761">
        <ele>163.19999694824</ele>
        <time>2011-08-04T12:04:06.000Z</time>
      </trkpt>
      <trkpt lat="48.68845" lon="1.75751">
        <ele>163.39999389648</ele>
        <time>2011-08-04T12:04:08.000Z</time>
      </trkpt>
      <trkpt lat="48.68851" lon="1.75736">
        <ele>163.39999389648</ele>
        <time>2011-08-04T12:04:11.000Z</time>
      </trkpt>
      <trkpt lat="48.68856" lon="1.75718">
        <ele>163.39999389648</ele>
        <time>2011-08-04T12:04:14.000Z</time>
      </trkpt>
      <trkpt lat="48.68859" lon="1.75705">
        <ele>163.39999389648</ele>
        <time>2011-08-04T12:04:16.000Z</time>
      </trkpt>
      <trkpt lat="48.68869" lon="1.7566">
        <ele>163</ele>
        <time>2011-08-04T12:04:23.000Z</time>
      </trkpt>
      <trkpt lat="48.68875" lon="1.75628">
        <ele>162.80000305176</ele>
        <time>2011-08-04T12:04:28.000Z</time>
      </trkpt>
      <trkpt lat="48.68879" lon="1.75598">
        <ele>162.19999694824</ele>
        <time>2011-08-04T12:04:33.000Z</time>
      </trkpt>
      <trkpt lat="48.68888" lon="1.75559">
        <ele>161.39999389648</ele>
        <time>2011-08-04T12:04:40.000Z</time>
      </trkpt>
      <trkpt lat="48.68896" lon="1.75526">
        <ele>160.60000610352</ele>
        <time>2011-08-04T12:04:46.000Z</time>
      </trkpt>
      <trkpt lat="48.68901" lon="1.75505">
        <ele>160</ele>
        <time>2011-08-04T12:04:50.000Z</time>
      </trkpt>
      <trkpt lat="48.68907" lon="1.75479">
        <ele>159</ele>
        <time>2011-08-04T12:04:55.000Z</time>
      </trkpt>
      <trkpt lat="48.68911" lon="1.75451">
        <ele>158.19999694824</ele>
        <time>2011-08-04T12:05:00.000Z</time>
      </trkpt>
      <trkpt lat="48.68919" lon="1.75418">
        <ele>157</ele>
        <time>2011-08-04T12:05:06.000Z</time>
      </trkpt>
      <trkpt lat="48.68927" lon="1.75384">
        <ele>156</ele>
        <time>2011-08-04T12:05:12.000Z</time>
      </trkpt>
      <trkpt lat="48.68936" lon="1.75357">
        <ele>155.39999389648</ele>
        <time>2011-08-04T12:05:19.000Z</time>
      </trkpt>
      <trkpt lat="48.68944" lon="1.75343">
        <ele>155.19999694824</ele>
        <time>2011-08-04T12:05:25.000Z</time>
      </trkpt>
      <trkpt lat="48.68951" lon="1.7533">
        <ele>155</ele>
        <time>2011-08-04T12:05:32.000Z</time>
      </trkpt>
      <trkpt lat="48.68952" lon="1.75326">
        <ele>155</ele>
        <time>2011-08-04T12:05:37.000Z</time>
      </trkpt>
      <trkpt lat="48.68949" lon="1.75321">
        <ele>154.80000305176</ele>
        <time>2011-08-04T12:07:07.000Z</time>
      </trkpt>
      <trkpt lat="48.68952" lon="1.75309">
        <ele>154.80000305176</ele>
        <time>2011-08-04T12:07:12.000Z</time>
      </trkpt>
      <trkpt lat="48.68953" lon="1.75307">
        <ele>154.80000305176</ele>
        <time>2011-08-04T12:07:13.000Z</time>
      </trkpt>
      <trkpt lat="48.68958" lon="1.75294">
        <ele>154.60000610352</ele>
        <time>2011-08-04T12:07:19.000Z</time>
      </trkpt>
      <trkpt lat="48.68958" lon="1.75292">
        <ele>154.60000610352</ele>
        <time>2011-08-04T12:07:20.000Z</time>
      </trkpt>
      <trkpt lat="48.68955" lon="1.75278">
        <ele>154.39999389648</ele>
        <time>2011-08-04T12:07:26.000Z</time>
      </trkpt>
      <trkpt lat="48.68949" lon="1.75266">
        <ele>154</ele>
        <time>2011-08-04T12:07:32.000Z</time>
      </trkpt>
      <trkpt lat="48.68947" lon="1.75261">
        <ele>153.80000305176</ele>
        <time>2011-08-04T12:07:34.000Z</time>
      </trkpt>
      <trkpt lat="48.68945" lon="1.75257">
        <ele>153.60000610352</ele>
        <time>2011-08-04T12:07:37.000Z</time>
      </trkpt>
      <trkpt lat="48.68941" lon="1.75245">
        <ele>153.39999389648</ele>
        <time>2011-08-04T12:07:43.000Z</time>
      </trkpt>
      <trkpt lat="48.68935" lon="1.75231">
        <ele>153.19999694824</ele>
        <time>2011-08-04T12:07:49.000Z</time>
      </trkpt>
      <trkpt lat="48.68934" lon="1.75219">
        <ele>153.19999694824</ele>
        <time>2011-08-04T12:07:54.000Z</time>
      </trkpt>
      <trkpt lat="48.68931" lon="1.75206">
        <ele>153.19999694824</ele>
        <time>2011-08-04T12:08:00.000Z</time>
      </trkpt>
      <trkpt lat="48.6893" lon="1.75195">
        <ele>153.19999694824</ele>
        <time>2011-08-04T12:08:05.000Z</time>
      </trkpt>
      <trkpt lat="48.68927" lon="1.75189">
        <ele>153</ele>
        <time>2011-08-04T12:08:08.000Z</time>
      </trkpt>
      <trkpt lat="48.68929" lon="1.75176">
        <ele>153</ele>
        <time>2011-08-04T12:08:13.000Z</time>
      </trkpt>
      <trkpt lat="48.68929" lon="1.75164">
        <ele>153</ele>
        <time>2011-08-04T12:08:18.000Z</time>
      </trkpt>
      <trkpt lat="48.68928" lon="1.75156">
        <ele>153.19999694824</ele>
        <time>2011-08-04T12:08:22.000Z</time>
      </trkpt>
      <trkpt lat="48.68929" lon="1.75145">
        <ele>153.19999694824</ele>
        <time>2011-08-04T12:08:28.000Z</time>
      </trkpt>
      <trkpt lat="48.68923" lon="1.75137">
        <ele>153.19999694824</ele>
        <time>2011-08-04T12:08:32.000Z</time>
      </trkpt>
      <trkpt lat="48.68919" lon="1.75119">
        <ele>153.39999389648</ele>
        <time>2011-08-04T12:08:39.000Z</time>
      </trkpt>
      <trkpt lat="48.68918" lon="1.75108">
        <ele>153.60000610352</ele>
        <time>2011-08-04T12:08:44.000Z</time>
      </trkpt>
      <trkpt lat="48.68917" lon="1.75091">
        <ele>153.80000305176</ele>
        <time>2011-08-04T12:08:51.000Z</time>
      </trkpt>
      <trkpt lat="48.68912" lon="1.75067">
        <ele>154</ele>
        <time>2011-08-04T12:08:57.000Z</time>
      </trkpt>
      <trkpt lat="48.68909" lon="1.75043">
        <ele>154</ele>
        <time>2011-08-04T12:09:03.000Z</time>
      </trkpt>
      <trkpt lat="48.68904" lon="1.7501">
        <ele>154</ele>
        <time>2011-08-04T12:09:11.000Z</time>
      </trkpt>
      <trkpt lat="48.68898" lon="1.74971">
        <ele>155</ele>
        <time>2011-08-04T12:09:20.000Z</time>
      </trkpt>
      <trkpt lat="48.68894" lon="1.74945">
        <ele>155.80000305176</ele>
        <time>2011-08-04T12:09:26.000Z</time>
      </trkpt>
      <trkpt lat="48.68888" lon="1.74914">
        <ele>156.60000610352</ele>
        <time>2011-08-04T12:09:33.000Z</time>
      </trkpt>
      <trkpt lat="48.68883" lon="1.7488">
        <ele>157</ele>
        <time>2011-08-04T12:09:40.000Z</time>
      </trkpt>
      <trkpt lat="48.68876" lon="1.74843">
        <ele>157.39999389648</ele>
        <time>2011-08-04T12:09:47.000Z</time>
      </trkpt>
      <trkpt lat="48.68871" lon="1.74817">
        <ele>157.60000610352</ele>
        <time>2011-08-04T12:09:52.000Z</time>
      </trkpt>
      <trkpt lat="48.68866" lon="1.7479">
        <ele>157.60000610352</ele>
        <time>2011-08-04T12:09:57.000Z</time>
      </trkpt>
      <trkpt lat="48.68861" lon="1.74764">
        <ele>157.80000305176</ele>
        <time>2011-08-04T12:10:02.000Z</time>
      </trkpt>
      <trkpt lat="48.68859" lon="1.7473">
        <ele>157.80000305176</ele>
        <time>2011-08-04T12:10:08.000Z</time>
      </trkpt>
      <trkpt lat="48.68852" lon="1.74697">
        <ele>157.60000610352</ele>
        <time>2011-08-04T12:10:14.000Z</time>
      </trkpt>
      <trkpt lat="48.68847" lon="1.74666">
        <ele>157.60000610352</ele>
        <time>2011-08-04T12:10:20.000Z</time>
      </trkpt>
      <trkpt lat="48.68847" lon="1.7466">
        <ele>157.39999389648</ele>
        <time>2011-08-04T12:10:21.000Z</time>
      </trkpt>
      <trkpt lat="48.68859" lon="1.7464">
        <ele>157.60000610352</ele>
        <time>2011-08-04T12:10:26.000Z</time>
      </trkpt>
      <trkpt lat="48.68865" lon="1.74628">
        <ele>157.60000610352</ele>
        <time>2011-08-04T12:10:29.000Z</time>
      </trkpt>
      <trkpt lat="48.68874" lon="1.74599">
        <ele>157.19999694824</ele>
        <time>2011-08-04T12:10:35.000Z</time>
      </trkpt>
      <trkpt lat="48.68881" lon="1.74583">
        <ele>157</ele>
        <time>2011-08-04T12:10:39.000Z</time>
      </trkpt>
      <trkpt lat="48.68883" lon="1.74578">
        <ele>157</ele>
        <time>2011-08-04T12:10:40.000Z</time>
      </trkpt>
      <trkpt lat="48.68893" lon="1.7456">
        <ele>157.39999389648</ele>
        <time>2011-08-04T12:10:44.000Z</time>
      </trkpt>
      <trkpt lat="48.68901" lon="1.74548">
        <ele>157.60000610352</ele>
        <time>2011-08-04T12:10:47.000Z</time>
      </trkpt>
      <trkpt lat="48.68915" lon="1.74525">
        <ele>157.80000305176</ele>
        <time>2011-08-04T12:10:53.000Z</time>
      </trkpt>
      <trkpt lat="48.68925" lon="1.7451">
        <ele>158</ele>
        <time>2011-08-04T12:10:57.000Z</time>
      </trkpt>
      <trkpt lat="48.68938" lon="1.74488">
        <ele>158.39999389648</ele>
        <time>2011-08-04T12:11:03.000Z</time>
      </trkpt>
      <trkpt lat="48.68951" lon="1.74461">
        <ele>158.80000305176</ele>
        <time>2011-08-04T12:11:10.000Z</time>
      </trkpt>
      <trkpt lat="48.68963" lon="1.74439">
        <ele>159</ele>
        <time>2011-08-04T12:11:15.000Z</time>
      </trkpt>
      <trkpt lat="48.68974" lon="1.74415">
        <ele>159.19999694824</ele>
        <time>2011-08-04T12:11:21.000Z</time>
      </trkpt>
      <trkpt lat="48.68984" lon="1.74396">
        <ele>159.80000305176</ele>
        <time>2011-08-04T12:11:26.000Z</time>
      </trkpt>
      <trkpt lat="48.68993" lon="1.74379">
        <ele>160.19999694824</ele>
        <time>2011-08-04T12:11:30.000Z</time>
      </trkpt>
      <trkpt lat="48.69001" lon="1.74357">
        <ele>160.60000610352</ele>
        <time>2011-08-04T12:11:35.000Z</time>
      </trkpt>
      <trkpt lat="48.69004" lon="1.74348">
        <ele>160.80000305176</ele>
        <time>2011-08-04T12:11:37.000Z</time>
      </trkpt>
      <trkpt lat="48.69018" lon="1.74319">
        <ele>161.60000610352</ele>
        <time>2011-08-04T12:11:44.000Z</time>
      </trkpt>
      <trkpt lat="48.69029" lon="1.74303">
        <ele>162.39999389648</ele>
        <time>2011-08-04T12:11:49.000Z</time>
      </trkpt>
      <trkpt lat="48.69031" lon="1.743">
        <ele>162.60000610352</ele>
        <time>2011-08-04T12:11:50.000Z</time>
      </trkpt>
      <trkpt lat="48.69039" lon="1.74299">
        <ele>162.60000610352</ele>
        <time>2011-08-04T12:11:54.000Z</time>
      </trkpt>
      <trkpt lat="48.69043" lon="1.74302">
        <ele>162.39999389648</ele>
        <time>2011-08-04T12:11:56.000Z</time>
      </trkpt>
      <trkpt lat="48.69054" lon="1.74309">
        <ele>162</ele>
        <time>2011-08-04T12:12:01.000Z</time>
      </trkpt>
      <trkpt lat="48.69064" lon="1.7432">
        <ele>161.60000610352</ele>
        <time>2011-08-04T12:12:06.000Z</time>
      </trkpt>
      <trkpt lat="48.69071" lon="1.74328">
        <ele>161.19999694824</ele>
        <time>2011-08-04T12:12:10.000Z</time>
      </trkpt>
      <trkpt lat="48.69088" lon="1.74346">
        <ele>161</ele>
        <time>2011-08-04T12:12:16.000Z</time>
      </trkpt>
      <trkpt lat="48.691" lon="1.74361">
        <ele>161.19999694824</ele>
        <time>2011-08-04T12:12:21.000Z</time>
      </trkpt>
      <trkpt lat="48.6911" lon="1.74372">
        <ele>161.60000610352</ele>
        <time>2011-08-04T12:12:26.000Z</time>
      </trkpt>
      <trkpt lat="48.69121" lon="1.7438">
        <ele>161.80000305176</ele>
        <time>2011-08-04T12:12:32.000Z</time>
      </trkpt>
      <trkpt lat="48.69132" lon="1.74387">
        <ele>162.19999694824</ele>
        <time>2011-08-04T12:12:37.000Z</time>
      </trkpt>
      <trkpt lat="48.69141" lon="1.74398">
        <ele>162.60000610352</ele>
        <time>2011-08-04T12:12:42.000Z</time>
      </trkpt>
      <trkpt lat="48.69144" lon="1.74407">
        <ele>163</ele>
        <time>2011-08-04T12:12:47.000Z</time>
      </trkpt>
      <trkpt lat="48.69155" lon="1.7442">
        <ele>163.60000610352</ele>
        <time>2011-08-04T12:12:54.000Z</time>
      </trkpt>
      <trkpt lat="48.69168" lon="1.74429">
        <ele>164.19999694824</ele>
        <time>2011-08-04T12:13:00.000Z</time>
      </trkpt>
      <trkpt lat="48.69174" lon="1.74432">
        <ele>164.39999389648</ele>
        <time>2011-08-04T12:13:03.000Z</time>
      </trkpt>
      <trkpt lat="48.69179" lon="1.74439">
        <ele>164.80000305176</ele>
        <time>2011-08-04T12:13:07.000Z</time>
      </trkpt>
      <trkpt lat="48.69191" lon="1.74451">
        <ele>165.39999389648</ele>
        <time>2011-08-04T12:13:15.000Z</time>
      </trkpt>
      <trkpt lat="48.69199" lon="1.74459">
        <ele>165.80000305176</ele>
        <time>2011-08-04T12:13:20.000Z</time>
      </trkpt>
      <trkpt lat="48.69208" lon="1.7447">
        <ele>166.39999389648</ele>
        <time>2011-08-04T12:13:27.000Z</time>
      </trkpt>
      <trkpt lat="48.69216" lon="1.74479">
        <ele>167</ele>
        <time>2011-08-04T12:13:33.000Z</time>
      </trkpt>
      <trkpt lat="48.69225" lon="1.74488">
        <ele>167.60000610352</ele>
        <time>2011-08-04T12:13:39.000Z</time>
      </trkpt>
      <trkpt lat="48.69234" lon="1.74498">
        <ele>168.19999694824</ele>
        <time>2011-08-04T12:13:46.000Z</time>
      </trkpt>
      <trkpt lat="48.69241" lon="1.74504">
        <ele>168.60000610352</ele>
        <time>2011-08-04T12:13:51.000Z</time>
      </trkpt>
      <trkpt lat="48.69251" lon="1.74515">
        <ele>168.80000305176</ele>
        <time>2011-08-04T12:13:59.000Z</time>
      </trkpt>
      <trkpt lat="48.69256" lon="1.74521">
        <ele>168.80000305176</ele>
        <time>2011-08-04T12:14:04.000Z</time>
      </trkpt>
      <trkpt lat="48.69261" lon="1.74528">
        <ele>168.60000610352</ele>
        <time>2011-08-04T12:14:10.000Z</time>
      </trkpt>
      <trkpt lat="48.69268" lon="1.74535">
        <ele>168.60000610352</ele>
        <time>2011-08-04T12:14:15.000Z</time>
      </trkpt>
      <trkpt lat="48.69279" lon="1.74545">
        <ele>168.39999389648</ele>
        <time>2011-08-04T12:14:22.000Z</time>
      </trkpt>
      <trkpt lat="48.69291" lon="1.74557">
        <ele>168.19999694824</ele>
        <time>2011-08-04T12:14:31.000Z</time>
      </trkpt>
      <trkpt lat="48.69301" lon="1.74566">
        <ele>168.19999694824</ele>
        <time>2011-08-04T12:14:38.000Z</time>
      </trkpt>
      <trkpt lat="48.69306" lon="1.74574">
        <ele>168.19999694824</ele>
        <time>2011-08-04T12:14:42.000Z</time>
      </trkpt>
      <trkpt lat="48.69312" lon="1.74592">
        <ele>168</ele>
        <time>2011-08-04T12:14:50.000Z</time>
      </trkpt>
      <trkpt lat="48.69319" lon="1.74606">
        <ele>167.80000305176</ele>
        <time>2011-08-04T12:14:56.000Z</time>
      </trkpt>
      <trkpt lat="48.69322" lon="1.7462">
        <ele>167.60000610352</ele>
        <time>2011-08-04T12:15:02.000Z</time>
      </trkpt>
      <trkpt lat="48.69325" lon="1.74635">
        <ele>167.39999389648</ele>
        <time>2011-08-04T12:15:08.000Z</time>
      </trkpt>
      <trkpt lat="48.69328" lon="1.7465">
        <ele>167.19999694824</ele>
        <time>2011-08-04T12:15:14.000Z</time>
      </trkpt>
      <trkpt lat="48.69332" lon="1.74667">
        <ele>166.80000305176</ele>
        <time>2011-08-04T12:15:22.000Z</time>
      </trkpt>
      <trkpt lat="48.69335" lon="1.74682">
        <ele>166.80000305176</ele>
        <time>2011-08-04T12:15:29.000Z</time>
      </trkpt>
      <trkpt lat="48.69339" lon="1.74692">
        <ele>166.60000610352</ele>
        <time>2011-08-04T12:15:34.000Z</time>
      </trkpt>
      <trkpt lat="48.69341" lon="1.74707">
        <ele>166.39999389648</ele>
        <time>2011-08-04T12:15:40.000Z</time>
      </trkpt>
      <trkpt lat="48.69346" lon="1.74721">
        <ele>166.19999694824</ele>
        <time>2011-08-04T12:15:46.000Z</time>
      </trkpt>
      <trkpt lat="48.69351" lon="1.74732">
        <ele>166</ele>
        <time>2011-08-04T12:15:51.000Z</time>
      </trkpt>
      <trkpt lat="48.69355" lon="1.74745">
        <ele>165.60000610352</ele>
        <time>2011-08-04T12:15:57.000Z</time>
      </trkpt>
      <trkpt lat="48.69362" lon="1.74761">
        <ele>164.80000305176</ele>
        <time>2011-08-04T12:16:04.000Z</time>
      </trkpt>
      <trkpt lat="48.69367" lon="1.74777">
        <ele>163.80000305176</ele>
        <time>2011-08-04T12:16:11.000Z</time>
      </trkpt>
      <trkpt lat="48.69367" lon="1.74786">
        <ele>163.39999389648</ele>
        <time>2011-08-04T12:16:16.000Z</time>
      </trkpt>
      <trkpt lat="48.69367" lon="1.74786">
        <ele>163.39999389648</ele>
        <time>2011-08-04T12:16:17.000Z</time>
      </trkpt>
      <trkpt lat="48.69369" lon="1.74796">
        <ele>163</ele>
        <time>2011-08-04T12:16:25.000Z</time>
      </trkpt>
      <trkpt lat="48.69372" lon="1.74804">
        <ele>162.60000610352</ele>
        <time>2011-08-04T12:16:28.000Z</time>
      </trkpt>
      <trkpt lat="48.69374" lon="1.74812">
        <ele>162.19999694824</ele>
        <time>2011-08-04T12:16:32.000Z</time>
      </trkpt>
      <trkpt lat="48.69376" lon="1.74822">
        <ele>161.80000305176</ele>
        <time>2011-08-04T12:16:36.000Z</time>
      </trkpt>
      <trkpt lat="48.69382" lon="1.74843">
        <ele>161.80000305176</ele>
        <time>2011-08-04T12:16:44.000Z</time>
      </trkpt>
      <trkpt lat="48.69386" lon="1.74856">
        <ele>162.19999694824</ele>
        <time>2011-08-04T12:16:49.000Z</time>
      </trkpt>
      <trkpt lat="48.69387" lon="1.74865">
        <ele>162.60000610352</ele>
        <time>2011-08-04T12:16:53.000Z</time>
      </trkpt>
      <trkpt lat="48.69391" lon="1.74879">
        <ele>163.19999694824</ele>
        <time>2011-08-04T12:16:59.000Z</time>
      </trkpt>
      <trkpt lat="48.69397" lon="1.74899">
        <ele>164</ele>
        <time>2011-08-04T12:17:07.000Z</time>
      </trkpt>
      <trkpt lat="48.694" lon="1.74913">
        <ele>164.80000305176</ele>
        <time>2011-08-04T12:17:13.000Z</time>
      </trkpt>
      <trkpt lat="48.69403" lon="1.74929">
        <ele>165.39999389648</ele>
        <time>2011-08-04T12:17:20.000Z</time>
      </trkpt>
      <trkpt lat="48.69405" lon="1.74942">
        <ele>166</ele>
        <time>2011-08-04T12:17:27.000Z</time>
      </trkpt>
      <trkpt lat="48.69409" lon="1.7495">
        <ele>166.19999694824</ele>
        <time>2011-08-04T12:17:30.000Z</time>
      </trkpt>
      <trkpt lat="48.69411" lon="1.74954">
        <ele>166.60000610352</ele>
        <time>2011-08-04T12:17:32.000Z</time>
      </trkpt>
      <trkpt lat="48.69414" lon="1.74964">
        <ele>167</ele>
        <time>2011-08-04T12:17:36.000Z</time>
      </trkpt>
      <trkpt lat="48.69416" lon="1.74972">
        <ele>167.19999694824</ele>
        <time>2011-08-04T12:17:40.000Z</time>
      </trkpt>
      <trkpt lat="48.69419" lon="1.7498">
        <ele>167.39999389648</ele>
        <time>2011-08-04T12:17:44.000Z</time>
      </trkpt>
      <trkpt lat="48.69421" lon="1.74992">
        <ele>167.60000610352</ele>
        <time>2011-08-04T12:17:50.000Z</time>
      </trkpt>
      <trkpt lat="48.69421" lon="1.74993">
        <ele>167.80000305176</ele>
        <time>2011-08-04T12:17:51.000Z</time>
      </trkpt>
      <trkpt lat="48.69425" lon="1.75005">
        <ele>167.80000305176</ele>
        <time>2011-08-04T12:17:57.000Z</time>
      </trkpt>
      <trkpt lat="48.69431" lon="1.75023">
        <ele>167.80000305176</ele>
        <time>2011-08-04T12:18:05.000Z</time>
      </trkpt>
      <trkpt lat="48.69436" lon="1.7504">
        <ele>167.60000610352</ele>
        <time>2011-08-04T12:18:13.000Z</time>
      </trkpt>
      <trkpt lat="48.69444" lon="1.75055">
        <ele>167.39999389648</ele>
        <time>2011-08-04T12:18:21.000Z</time>
      </trkpt>
      <trkpt lat="48.69445" lon="1.75055">
        <ele>167.39999389648</ele>
        <time>2011-08-04T12:18:22.000Z</time>
      </trkpt>
      <trkpt lat="48.69453" lon="1.75051">
        <ele>167.39999389648</ele>
        <time>2011-08-04T12:18:28.000Z</time>
      </trkpt>
      <trkpt lat="48.69462" lon="1.75047">
        <ele>167.19999694824</ele>
        <time>2011-08-04T12:18:34.000Z</time>
      </trkpt>
      <trkpt lat="48.69471" lon="1.75041">
        <ele>167.19999694824</ele>
        <time>2011-08-04T12:18:41.000Z</time>
      </trkpt>
      <trkpt lat="48.6948" lon="1.75038">
        <ele>167.19999694824</ele>
        <time>2011-08-04T12:18:47.000Z</time>
      </trkpt>
      <trkpt lat="48.69495" lon="1.75031">
        <ele>167.19999694824</ele>
        <time>2011-08-04T12:18:56.000Z</time>
      </trkpt>
      <trkpt lat="48.69501" lon="1.75029">
        <ele>167</ele>
        <time>2011-08-04T12:19:02.000Z</time>
      </trkpt>
      <trkpt lat="48.69514" lon="1.75023">
        <ele>165.80000305176</ele>
        <time>2011-08-04T12:19:10.000Z</time>
      </trkpt>
      <trkpt lat="48.69522" lon="1.75021">
        <ele>165.19999694824</ele>
        <time>2011-08-04T12:19:15.000Z</time>
      </trkpt>
      <trkpt lat="48.69537" lon="1.75013">
        <ele>163.80000305176</ele>
        <time>2011-08-04T12:19:24.000Z</time>
      </trkpt>
      <trkpt lat="48.69547" lon="1.75008">
        <ele>162.60000610352</ele>
        <time>2011-08-04T12:19:31.000Z</time>
      </trkpt>
      <trkpt lat="48.69559" lon="1.75002">
        <ele>161.60000610352</ele>
        <time>2011-08-04T12:19:38.000Z</time>
      </trkpt>
      <trkpt lat="48.69572" lon="1.74995">
        <ele>160</ele>
        <time>2011-08-04T12:19:45.000Z</time>
      </trkpt>
      <trkpt lat="48.69579" lon="1.74992">
        <ele>159.19999694824</ele>
        <time>2011-08-04T12:19:50.000Z</time>
      </trkpt>
      <trkpt lat="48.69593" lon="1.74985">
        <ele>159.19999694824</ele>
        <time>2011-08-04T12:19:58.000Z</time>
      </trkpt>
      <trkpt lat="48.69601" lon="1.74981">
        <ele>159.39999389648</ele>
        <time>2011-08-04T12:20:04.000Z</time>
      </trkpt>
      <trkpt lat="48.69608" lon="1.74978">
        <ele>159.80000305176</ele>
        <time>2011-08-04T12:20:09.000Z</time>
      </trkpt>
      <trkpt lat="48.69619" lon="1.74972">
        <ele>160.19999694824</ele>
        <time>2011-08-04T12:20:16.000Z</time>
      </trkpt>
      <trkpt lat="48.69631" lon="1.74967">
        <ele>160.80000305176</ele>
        <time>2011-08-04T12:20:24.000Z</time>
      </trkpt>
      <trkpt lat="48.69642" lon="1.74964">
        <ele>161.19999694824</ele>
        <time>2011-08-04T12:20:31.000Z</time>
      </trkpt>
      <trkpt lat="48.69655" lon="1.74957">
        <ele>161.80000305176</ele>
        <time>2011-08-04T12:20:40.000Z</time>
      </trkpt>
      <trkpt lat="48.69667" lon="1.7495">
        <ele>162.39999389648</ele>
        <time>2011-08-04T12:20:48.000Z</time>
      </trkpt>
      <trkpt lat="48.69678" lon="1.74944">
        <ele>162.80000305176</ele>
        <time>2011-08-04T12:20:56.000Z</time>
      </trkpt>
      <trkpt lat="48.69686" lon="1.7494">
        <ele>163</ele>
        <time>2011-08-04T12:21:02.000Z</time>
      </trkpt>
      <trkpt lat="48.69697" lon="1.74933">
        <ele>163.39999389648</ele>
        <time>2011-08-04T12:21:09.000Z</time>
      </trkpt>
      <trkpt lat="48.69707" lon="1.74928">
        <ele>163.80000305176</ele>
        <time>2011-08-04T12:21:16.000Z</time>
      </trkpt>
      <trkpt lat="48.69717" lon="1.74925">
        <ele>164.39999389648</ele>
        <time>2011-08-04T12:21:23.000Z</time>
      </trkpt>
      <trkpt lat="48.69725" lon="1.7492">
        <ele>164.80000305176</ele>
        <time>2011-08-04T12:21:29.000Z</time>
      </trkpt>
      <trkpt lat="48.69735" lon="1.74916">
        <ele>165.19999694824</ele>
        <time>2011-08-04T12:21:36.000Z</time>
      </trkpt>
      <trkpt lat="48.69746" lon="1.74912">
        <ele>165.60000610352</ele>
        <time>2011-08-04T12:21:44.000Z</time>
      </trkpt>
      <trkpt lat="48.69755" lon="1.7491">
        <ele>165.80000305176</ele>
        <time>2011-08-04T12:21:49.000Z</time>
      </trkpt>
      <trkpt lat="48.69765" lon="1.74906">
        <ele>166</ele>
        <time>2011-08-04T12:21:55.000Z</time>
      </trkpt>
      <trkpt lat="48.69772" lon="1.74901">
        <ele>166.19999694824</ele>
        <time>2011-08-04T12:22:00.000Z</time>
      </trkpt>
      <trkpt lat="48.69773" lon="1.74899">
        <ele>166.19999694824</ele>
        <time>2011-08-04T12:22:04.000Z</time>
      </trkpt>
      <trkpt lat="48.69779" lon="1.74896">
        <ele>166.39999389648</ele>
        <time>2011-08-04T12:22:13.000Z</time>
      </trkpt>
      <trkpt lat="48.69784" lon="1.74892">
        <ele>166.60000610352</ele>
        <time>2011-08-04T12:22:19.000Z</time>
      </trkpt>
      <trkpt lat="48.69792" lon="1.74888">
        <ele>167</ele>
        <time>2011-08-04T12:22:26.000Z</time>
      </trkpt>
      <trkpt lat="48.69801" lon="1.74886">
        <ele>167.19999694824</ele>
        <time>2011-08-04T12:22:32.000Z</time>
      </trkpt>
      <trkpt lat="48.69806" lon="1.74898">
        <ele>167</ele>
        <time>2011-08-04T12:22:38.000Z</time>
      </trkpt>
      <trkpt lat="48.69809" lon="1.74914">
        <ele>166.80000305176</ele>
        <time>2011-08-04T12:22:44.000Z</time>
      </trkpt>
      <trkpt lat="48.69813" lon="1.74924">
        <ele>166.80000305176</ele>
        <time>2011-08-04T12:22:48.000Z</time>
      </trkpt>
      <trkpt lat="48.69817" lon="1.74942">
        <ele>167.19999694824</ele>
        <time>2011-08-04T12:22:56.000Z</time>
      </trkpt>
      <trkpt lat="48.69822" lon="1.74953">
        <ele>167.60000610352</ele>
        <time>2011-08-04T12:23:02.000Z</time>
      </trkpt>
      <trkpt lat="48.69822" lon="1.74958">
        <ele>167.60000610352</ele>
        <time>2011-08-04T12:23:04.000Z</time>
      </trkpt>
      <trkpt lat="48.69825" lon="1.74975">
        <ele>168</ele>
        <time>2011-08-04T12:23:11.000Z</time>
      </trkpt>
      <trkpt lat="48.69827" lon="1.74981">
        <ele>168.19999694824</ele>
        <time>2011-08-04T12:23:14.000Z</time>
      </trkpt>
      <trkpt lat="48.69826" lon="1.75">
        <ele>168.60000610352</ele>
        <time>2011-08-04T12:23:21.000Z</time>
      </trkpt>
      <trkpt lat="48.69831" lon="1.75013">
        <ele>169</ele>
        <time>2011-08-04T12:23:27.000Z</time>
      </trkpt>
      <trkpt lat="48.69832" lon="1.75022">
        <ele>169.19999694824</ele>
        <time>2011-08-04T12:23:31.000Z</time>
      </trkpt>
      <trkpt lat="48.69833" lon="1.75034">
        <ele>169.19999694824</ele>
        <time>2011-08-04T12:23:37.000Z</time>
      </trkpt>
      <trkpt lat="48.69834" lon="1.75052">
        <ele>169.60000610352</ele>
        <time>2011-08-04T12:23:45.000Z</time>
      </trkpt>
      <trkpt lat="48.69837" lon="1.75071">
        <ele>170</ele>
        <time>2011-08-04T12:23:53.000Z</time>
      </trkpt>
      <trkpt lat="48.69841" lon="1.75088">
        <ele>170.19999694824</ele>
        <time>2011-08-04T12:24:01.000Z</time>
      </trkpt>
      <trkpt lat="48.69844" lon="1.75106">
        <ele>170.60000610352</ele>
        <time>2011-08-04T12:24:09.000Z</time>
      </trkpt>
      <trkpt lat="48.69847" lon="1.75112">
        <ele>170.80000305176</ele>
        <time>2011-08-04T12:24:12.000Z</time>
      </trkpt>
      <trkpt lat="48.69848" lon="1.75128">
        <ele>170.80000305176</ele>
        <time>2011-08-04T12:24:20.000Z</time>
      </trkpt>
      <trkpt lat="48.6985" lon="1.75142">
        <ele>171.19999694824</ele>
        <time>2011-08-04T12:24:27.000Z</time>
      </trkpt>
      <trkpt lat="48.69854" lon="1.75161">
        <ele>171.60000610352</ele>
        <time>2011-08-04T12:24:36.000Z</time>
      </trkpt>
      <trkpt lat="48.69855" lon="1.75177">
        <ele>172</ele>
        <time>2011-08-04T12:24:43.000Z</time>
      </trkpt>
      <trkpt lat="48.69858" lon="1.75189">
        <ele>172.39999389648</ele>
        <time>2011-08-04T12:24:50.000Z</time>
      </trkpt>
      <trkpt lat="48.69858" lon="1.752">
        <ele>172.60000610352</ele>
        <time>2011-08-04T12:24:56.000Z</time>
      </trkpt>
      <trkpt lat="48.69861" lon="1.75214">
        <ele>173</ele>
        <time>2011-08-04T12:25:03.000Z</time>
      </trkpt>
      <trkpt lat="48.69861" lon="1.7522">
        <ele>173.19999694824</ele>
        <time>2011-08-04T12:25:07.000Z</time>
      </trkpt>
      <trkpt lat="48.69862" lon="1.75231">
        <ele>173.39999389648</ele>
        <time>2011-08-04T12:25:12.000Z</time>
      </trkpt>
      <trkpt lat="48.69867" lon="1.75253">
        <ele>173.60000610352</ele>
        <time>2011-08-04T12:25:21.000Z</time>
      </trkpt>
      <trkpt lat="48.69872" lon="1.75273">
        <ele>173.39999389648</ele>
        <time>2011-08-04T12:25:30.000Z</time>
      </trkpt>
      <trkpt lat="48.69873" lon="1.75285">
        <ele>173.19999694824</ele>
        <time>2011-08-04T12:25:36.000Z</time>
      </trkpt>
      <trkpt lat="48.69875" lon="1.75299">
        <ele>173</ele>
        <time>2011-08-04T12:25:42.000Z</time>
      </trkpt>
      <trkpt lat="48.69876" lon="1.75307">
        <ele>172.80000305176</ele>
        <time>2011-08-04T12:25:46.000Z</time>
      </trkpt>
      <trkpt lat="48.69878" lon="1.75319">
        <ele>172.60000610352</ele>
        <time>2011-08-04T12:25:51.000Z</time>
      </trkpt>
      <trkpt lat="48.69881" lon="1.75345">
        <ele>172.19999694824</ele>
        <time>2011-08-04T12:26:02.000Z</time>
      </trkpt>
      <trkpt lat="48.69881" lon="1.75352">
        <ele>172.19999694824</ele>
        <time>2011-08-04T12:26:05.000Z</time>
      </trkpt>
      <trkpt lat="48.69883" lon="1.75365">
        <ele>172</ele>
        <time>2011-08-04T12:26:11.000Z</time>
      </trkpt>
      <trkpt lat="48.69888" lon="1.75375">
        <ele>171.80000305176</ele>
        <time>2011-08-04T12:26:18.000Z</time>
      </trkpt>
      <trkpt lat="48.69894" lon="1.75381">
        <ele>171.80000305176</ele>
        <time>2011-08-04T12:26:24.000Z</time>
      </trkpt>
      <trkpt lat="48.69895" lon="1.75382">
        <ele>172</ele>
        <time>2011-08-04T12:26:25.000Z</time>
      </trkpt>
      <trkpt lat="48.69905" lon="1.75378">
        <ele>172.19999694824</ele>
        <time>2011-08-04T12:26:33.000Z</time>
      </trkpt>
      <trkpt lat="48.69906" lon="1.75377">
        <ele>172.19999694824</ele>
        <time>2011-08-04T12:26:34.000Z</time>
      </trkpt>
      <trkpt lat="48.69914" lon="1.75375">
        <ele>172.39999389648</ele>
        <time>2011-08-04T12:26:41.000Z</time>
      </trkpt>
      <trkpt lat="48.69915" lon="1.75374">
        <ele>172.39999389648</ele>
        <time>2011-08-04T12:26:42.000Z</time>
      </trkpt>
      <trkpt lat="48.69927" lon="1.75372">
        <ele>172.19999694824</ele>
        <time>2011-08-04T12:26:50.000Z</time>
      </trkpt>
      <trkpt lat="48.69928" lon="1.75371">
        <ele>172.19999694824</ele>
        <time>2011-08-04T12:26:51.000Z</time>
      </trkpt>
      <trkpt lat="48.6994" lon="1.75367">
        <ele>172</ele>
        <time>2011-08-04T12:26:59.000Z</time>
      </trkpt>
      <trkpt lat="48.69951" lon="1.75362">
        <ele>171.80000305176</ele>
        <time>2011-08-04T12:27:05.000Z</time>
      </trkpt>
      <trkpt lat="48.6996" lon="1.75357">
        <ele>171.80000305176</ele>
        <time>2011-08-04T12:27:12.000Z</time>
      </trkpt>
      <trkpt lat="48.69967" lon="1.75355">
        <ele>171.80000305176</ele>
        <time>2011-08-04T12:27:18.000Z</time>
      </trkpt>
      <trkpt lat="48.69976" lon="1.75349">
        <ele>171.80000305176</ele>
        <time>2011-08-04T12:27:25.000Z</time>
      </trkpt>
      <trkpt lat="48.69986" lon="1.75344">
        <ele>171.80000305176</ele>
        <time>2011-08-04T12:27:32.000Z</time>
      </trkpt>
      <trkpt lat="48.69997" lon="1.75343">
        <ele>171.60000610352</ele>
        <time>2011-08-04T12:27:40.000Z</time>
      </trkpt>
      <trkpt lat="48.70004" lon="1.7534">
        <ele>171.80000305176</ele>
        <time>2011-08-04T12:27:45.000Z</time>
      </trkpt>
      <trkpt lat="48.70013" lon="1.7533">
        <ele>172.19999694824</ele>
        <time>2011-08-04T12:27:52.000Z</time>
      </trkpt>
      <trkpt lat="48.70019" lon="1.75327">
        <ele>172.39999389648</ele>
        <time>2011-08-04T12:27:57.000Z</time>
      </trkpt>
      <trkpt lat="48.70021" lon="1.75326">
        <ele>172.39999389648</ele>
        <time>2011-08-04T12:27:59.000Z</time>
      </trkpt>
      <trkpt lat="48.70025" lon="1.75325">
        <ele>172.39999389648</ele>
        <time>2011-08-04T12:28:03.000Z</time>
      </trkpt>
      <trkpt lat="48.70038" lon="1.7532">
        <ele>172.80000305176</ele>
        <time>2011-08-04T12:28:13.000Z</time>
      </trkpt>
      <trkpt lat="48.70049" lon="1.75316">
        <ele>173</ele>
        <time>2011-08-04T12:28:21.000Z</time>
      </trkpt>
      <trkpt lat="48.70055" lon="1.75313">
        <ele>173.19999694824</ele>
        <time>2011-08-04T12:28:27.000Z</time>
      </trkpt>
      <trkpt lat="48.70062" lon="1.75312">
        <ele>173.39999389648</ele>
        <time>2011-08-04T12:28:33.000Z</time>
      </trkpt>
      <trkpt lat="48.70074" lon="1.75305">
        <ele>173.80000305176</ele>
        <time>2011-08-04T12:28:41.000Z</time>
      </trkpt>
      <trkpt lat="48.7008" lon="1.75303">
        <ele>174</ele>
        <time>2011-08-04T12:28:45.000Z</time>
      </trkpt>
      <trkpt lat="48.70088" lon="1.753">
        <ele>174.19999694824</ele>
        <time>2011-08-04T12:28:53.000Z</time>
      </trkpt>
      <trkpt lat="48.70097" lon="1.75298">
        <ele>174.39999389648</ele>
        <time>2011-08-04T12:28:59.000Z</time>
      </trkpt>
      <trkpt lat="48.70105" lon="1.75296">
        <ele>174.60000610352</ele>
        <time>2011-08-04T12:29:05.000Z</time>
      </trkpt>
      <trkpt lat="48.70108" lon="1.75295">
        <ele>174.80000305176</ele>
        <time>2011-08-04T12:29:07.000Z</time>
      </trkpt>
      <trkpt lat="48.70109" lon="1.75293">
        <ele>174.80000305176</ele>
        <time>2011-08-04T12:29:09.000Z</time>
      </trkpt>
      <trkpt lat="48.70115" lon="1.75288">
        <ele>175</ele>
        <time>2011-08-04T12:29:14.000Z</time>
      </trkpt>
      <trkpt lat="48.70128" lon="1.75282">
        <ele>175.39999389648</ele>
        <time>2011-08-04T12:29:23.000Z</time>
      </trkpt>
      <trkpt lat="48.70137" lon="1.75277">
        <ele>175.60000610352</ele>
        <time>2011-08-04T12:29:30.000Z</time>
      </trkpt>
      <trkpt lat="48.70141" lon="1.75275">
        <ele>175.60000610352</ele>
        <time>2011-08-04T12:29:34.000Z</time>
      </trkpt>
      <trkpt lat="48.70146" lon="1.75273">
        <ele>175.60000610352</ele>
        <time>2011-08-04T12:29:38.000Z</time>
      </trkpt>
      <trkpt lat="48.70151" lon="1.75267">
        <ele>175.80000305176</ele>
        <time>2011-08-04T12:29:42.000Z</time>
      </trkpt>
      <trkpt lat="48.70158" lon="1.75261">
        <ele>175.80000305176</ele>
        <time>2011-08-04T12:29:48.000Z</time>
      </trkpt>
      <trkpt lat="48.70159" lon="1.75259">
        <ele>175.80000305176</ele>
        <time>2011-08-04T12:29:49.000Z</time>
      </trkpt>
      <trkpt lat="48.70168" lon="1.75259">
        <ele>176</ele>
        <time>2011-08-04T12:29:56.000Z</time>
      </trkpt>
      <trkpt lat="48.70176" lon="1.75256">
        <ele>176.39999389648</ele>
        <time>2011-08-04T12:30:01.000Z</time>
      </trkpt>
      <trkpt lat="48.70187" lon="1.75251">
        <ele>176.80000305176</ele>
        <time>2011-08-04T12:30:10.000Z</time>
      </trkpt>
      <trkpt lat="48.70188" lon="1.7525">
        <ele>177</ele>
        <time>2011-08-04T12:30:11.000Z</time>
      </trkpt>
      <trkpt lat="48.70199" lon="1.75244">
        <ele>177.39999389648</ele>
        <time>2011-08-04T12:30:19.000Z</time>
      </trkpt>
      <trkpt lat="48.70202" lon="1.75243">
        <ele>177.60000610352</ele>
        <time>2011-08-04T12:30:21.000Z</time>
      </trkpt>
      <trkpt lat="48.70213" lon="1.75244">
        <ele>178</ele>
        <time>2011-08-04T12:30:28.000Z</time>
      </trkpt>
      <trkpt lat="48.70218" lon="1.75246">
        <ele>178.39999389648</ele>
        <time>2011-08-04T12:30:31.000Z</time>
      </trkpt>
      <trkpt lat="48.70229" lon="1.75248">
        <ele>178.80000305176</ele>
        <time>2011-08-04T12:30:39.000Z</time>
      </trkpt>
      <trkpt lat="48.70238" lon="1.75253">
        <ele>179.19999694824</ele>
        <time>2011-08-04T12:30:45.000Z</time>
      </trkpt>
      <trkpt lat="48.70241" lon="1.75256">
        <ele>179.39999389648</ele>
        <time>2011-08-04T12:30:48.000Z</time>
      </trkpt>
      <trkpt lat="48.70244" lon="1.75258">
        <ele>179.60000610352</ele>
        <time>2011-08-04T12:30:50.000Z</time>
      </trkpt>
      <trkpt lat="48.7025" lon="1.75265">
        <ele>179.80000305176</ele>
        <time>2011-08-04T12:30:56.000Z</time>
      </trkpt>
      <trkpt lat="48.70253" lon="1.75268">
        <ele>179.80000305176</ele>
        <time>2011-08-04T12:30:59.000Z</time>
      </trkpt>
      <trkpt lat="48.70262" lon="1.75273">
        <ele>179.80000305176</ele>
        <time>2011-08-04T12:31:04.000Z</time>
      </trkpt>
      <trkpt lat="48.70272" lon="1.7528">
        <ele>180</ele>
        <time>2011-08-04T12:31:12.000Z</time>
      </trkpt>
      <trkpt lat="48.7028" lon="1.75287">
        <ele>180.19999694824</ele>
        <time>2011-08-04T12:31:19.000Z</time>
      </trkpt>
      <trkpt lat="48.70286" lon="1.75291">
        <ele>180.19999694824</ele>
        <time>2011-08-04T12:31:25.000Z</time>
      </trkpt>
      <trkpt lat="48.70294" lon="1.75301">
        <ele>180.39999389648</ele>
        <time>2011-08-04T12:31:33.000Z</time>
      </trkpt>
      <trkpt lat="48.70302" lon="1.75315">
        <ele>180.39999389648</ele>
        <time>2011-08-04T12:31:41.000Z</time>
      </trkpt>
      <trkpt lat="48.70308" lon="1.75329">
        <ele>180.39999389648</ele>
        <time>2011-08-04T12:31:49.000Z</time>
      </trkpt>
      <trkpt lat="48.70311" lon="1.75336">
        <ele>180.39999389648</ele>
        <time>2011-08-04T12:31:54.000Z</time>
      </trkpt>
      <trkpt lat="48.70319" lon="1.75345">
        <ele>180.60000610352</ele>
        <time>2011-08-04T12:32:01.000Z</time>
      </trkpt>
      <trkpt lat="48.7032" lon="1.75346">
        <ele>180.60000610352</ele>
        <time>2011-08-04T12:32:02.000Z</time>
      </trkpt>
      <trkpt lat="48.70324" lon="1.75349">
        <ele>180.60000610352</ele>
        <time>2011-08-04T12:32:06.000Z</time>
      </trkpt>
      <trkpt lat="48.70334" lon="1.75355">
        <ele>180.80000305176</ele>
        <time>2011-08-04T12:32:13.000Z</time>
      </trkpt>
      <trkpt lat="48.70341" lon="1.75361">
        <ele>180.80000305176</ele>
        <time>2011-08-04T12:32:18.000Z</time>
      </trkpt>
      <trkpt lat="48.7035" lon="1.75371">
        <ele>180.60000610352</ele>
        <time>2011-08-04T12:32:27.000Z</time>
      </trkpt>
      <trkpt lat="48.70353" lon="1.75376">
        <ele>180.60000610352</ele>
        <time>2011-08-04T12:32:32.000Z</time>
      </trkpt>
      <trkpt lat="48.70361" lon="1.75384">
        <ele>180.80000305176</ele>
        <time>2011-08-04T12:32:39.000Z</time>
      </trkpt>
      <trkpt lat="48.70369" lon="1.75392">
        <ele>180.80000305176</ele>
        <time>2011-08-04T12:32:45.000Z</time>
      </trkpt>
      <trkpt lat="48.70379" lon="1.75398">
        <ele>181</ele>
        <time>2011-08-04T12:32:52.000Z</time>
      </trkpt>
      <trkpt lat="48.7038" lon="1.75399">
        <ele>181</ele>
        <time>2011-08-04T12:32:53.000Z</time>
      </trkpt>
      <trkpt lat="48.70384" lon="1.75405">
        <ele>181.19999694824</ele>
        <time>2011-08-04T12:32:58.000Z</time>
      </trkpt>
      <trkpt lat="48.70391" lon="1.75409">
        <ele>181.39999389648</ele>
        <time>2011-08-04T12:33:03.000Z</time>
      </trkpt>
      <trkpt lat="48.70401" lon="1.75412">
        <ele>181.60000610352</ele>
        <time>2011-08-04T12:33:10.000Z</time>
      </trkpt>
      <trkpt lat="48.70407" lon="1.75416">
        <ele>181.80000305176</ele>
        <time>2011-08-04T12:33:16.000Z</time>
      </trkpt>
      <trkpt lat="48.70415" lon="1.75419">
        <ele>182</ele>
        <time>2011-08-04T12:33:22.000Z</time>
      </trkpt>
      <trkpt lat="48.70422" lon="1.75425">
        <ele>181.80000305176</ele>
        <time>2011-08-04T12:33:28.000Z</time>
      </trkpt>
      <trkpt lat="48.70435" lon="1.75433">
        <ele>181.19999694824</ele>
        <time>2011-08-04T12:33:37.000Z</time>
      </trkpt>
      <trkpt lat="48.70441" lon="1.75439">
        <ele>180.80000305176</ele>
        <time>2011-08-04T12:33:43.000Z</time>
      </trkpt>
      <trkpt lat="48.70449" lon="1.75445">
        <ele>180.60000610352</ele>
        <time>2011-08-04T12:33:50.000Z</time>
      </trkpt>
      <trkpt lat="48.70459" lon="1.75455">
        <ele>180.39999389648</ele>
        <time>2011-08-04T12:33:59.000Z</time>
      </trkpt>
      <trkpt lat="48.70473" lon="1.75465">
        <ele>180.19999694824</ele>
        <time>2011-08-04T12:34:08.000Z</time>
      </trkpt>
      <trkpt lat="48.70482" lon="1.75475">
        <ele>180.19999694824</ele>
        <time>2011-08-04T12:34:16.000Z</time>
      </trkpt>
      <trkpt lat="48.70487" lon="1.75482">
        <ele>180.39999389648</ele>
        <time>2011-08-04T12:34:22.000Z</time>
      </trkpt>
      <trkpt lat="48.70493" lon="1.7549">
        <ele>180.60000610352</ele>
        <time>2011-08-04T12:34:29.000Z</time>
      </trkpt>
      <trkpt lat="48.705" lon="1.75495">
        <ele>180.60000610352</ele>
        <time>2011-08-04T12:34:35.000Z</time>
      </trkpt>
      <trkpt lat="48.70509" lon="1.75503">
        <ele>180.39999389648</ele>
        <time>2011-08-04T12:34:42.000Z</time>
      </trkpt>
      <trkpt lat="48.70514" lon="1.75508">
        <ele>180.19999694824</ele>
        <time>2011-08-04T12:34:46.000Z</time>
      </trkpt>
      <trkpt lat="48.70522" lon="1.75516">
        <ele>180</ele>
        <time>2011-08-04T12:34:53.000Z</time>
      </trkpt>
      <trkpt lat="48.70525" lon="1.75519">
        <ele>180</ele>
        <time>2011-08-04T12:34:56.000Z</time>
      </trkpt>
      <trkpt lat="48.70533" lon="1.75527">
        <ele>180.19999694824</ele>
        <time>2011-08-04T12:35:01.000Z</time>
      </trkpt>
      <trkpt lat="48.70539" lon="1.75533">
        <ele>180.19999694824</ele>
        <time>2011-08-04T12:35:07.000Z</time>
      </trkpt>
      <trkpt lat="48.70544" lon="1.75539">
        <ele>180.19999694824</ele>
        <time>2011-08-04T12:35:12.000Z</time>
      </trkpt>
      <trkpt lat="48.70549" lon="1.75544">
        <ele>180.39999389648</ele>
        <time>2011-08-04T12:35:17.000Z</time>
      </trkpt>
      <trkpt lat="48.7055" lon="1.75545">
        <ele>180.60000610352</ele>
        <time>2011-08-04T12:35:18.000Z</time>
      </trkpt>
      <trkpt lat="48.70554" lon="1.75552">
        <ele>181</ele>
        <time>2011-08-04T12:35:23.000Z</time>
      </trkpt>
      <trkpt lat="48.70555" lon="1.75556">
        <ele>181.19999694824</ele>
        <time>2011-08-04T12:35:25.000Z</time>
      </trkpt>
      <trkpt lat="48.70563" lon="1.75563">
        <ele>181.39999389648</ele>
        <time>2011-08-04T12:35:32.000Z</time>
      </trkpt>
      <trkpt lat="48.70573" lon="1.75571">
        <ele>182</ele>
        <time>2011-08-04T12:35:40.000Z</time>
      </trkpt>
      <trkpt lat="48.70575" lon="1.75573">
        <ele>182</ele>
        <time>2011-08-04T12:35:42.000Z</time>
      </trkpt>
      <trkpt lat="48.70584" lon="1.75583">
        <ele>182.80000305176</ele>
        <time>2011-08-04T12:35:48.000Z</time>
      </trkpt>
      <trkpt lat="48.70588" lon="1.75587">
        <ele>182.39999389648</ele>
        <time>2011-08-04T12:35:52.000Z</time>
      </trkpt>
      <trkpt lat="48.70592" lon="1.75593">
        <ele>182.19999694824</ele>
        <time>2011-08-04T12:35:57.000Z</time>
      </trkpt>
      <trkpt lat="48.70594" lon="1.75595">
        <ele>182.19999694824</ele>
        <time>2011-08-04T12:35:59.000Z</time>
      </trkpt>
      <trkpt lat="48.70596" lon="1.75599">
        <ele>182</ele>
        <time>2011-08-04T12:36:01.000Z</time>
      </trkpt>
      <trkpt lat="48.70603" lon="1.75608">
        <ele>181.39999389648</ele>
        <time>2011-08-04T12:36:08.000Z</time>
      </trkpt>
      <trkpt lat="48.70608" lon="1.75616">
        <ele>181.19999694824</ele>
        <time>2011-08-04T12:36:14.000Z</time>
      </trkpt>
      <trkpt lat="48.7061" lon="1.75619">
        <ele>181</ele>
        <time>2011-08-04T12:36:17.000Z</time>
      </trkpt>
      <trkpt lat="48.70617" lon="1.75629">
        <ele>180.19999694824</ele>
        <time>2011-08-04T12:36:25.000Z</time>
      </trkpt>
      <trkpt lat="48.70625" lon="1.75636">
        <ele>179.60000610352</ele>
        <time>2011-08-04T12:36:31.000Z</time>
      </trkpt>
      <trkpt lat="48.70632" lon="1.75644">
        <ele>178.80000305176</ele>
        <time>2011-08-04T12:36:37.000Z</time>
      </trkpt>
      <trkpt lat="48.70637" lon="1.75654">
        <ele>178.39999389648</ele>
        <time>2011-08-04T12:36:43.000Z</time>
      </trkpt>
      <trkpt lat="48.7064" lon="1.75659">
        <ele>178</ele>
        <time>2011-08-04T12:36:48.000Z</time>
      </trkpt>
      <trkpt lat="48.7066" lon="1.75685">
        <ele>175.39999389648</ele>
        <time>2011-08-04T12:38:55.000Z</time>
      </trkpt>
      <trkpt lat="48.70664" lon="1.75689">
        <ele>174.80000305176</ele>
        <time>2011-08-04T12:38:58.000Z</time>
      </trkpt>
      <trkpt lat="48.70666" lon="1.75691">
        <ele>174.60000610352</ele>
        <time>2011-08-04T12:39:02.000Z</time>
      </trkpt>
      <trkpt lat="48.70674" lon="1.75698">
        <ele>174.39999389648</ele>
        <time>2011-08-04T12:39:08.000Z</time>
      </trkpt>
      <trkpt lat="48.70683" lon="1.75707">
        <ele>174.19999694824</ele>
        <time>2011-08-04T12:39:16.000Z</time>
      </trkpt>
      <trkpt lat="48.70684" lon="1.75708">
        <ele>174.19999694824</ele>
        <time>2011-08-04T12:39:17.000Z</time>
      </trkpt>
      <trkpt lat="48.70689" lon="1.75712">
        <ele>174.19999694824</ele>
        <time>2011-08-04T12:39:21.000Z</time>
      </trkpt>
      <trkpt lat="48.70693" lon="1.7572">
        <ele>174</ele>
        <time>2011-08-04T12:39:26.000Z</time>
      </trkpt>
      <trkpt lat="48.70695" lon="1.75724">
        <ele>174</ele>
        <time>2011-08-04T12:39:29.000Z</time>
      </trkpt>
      <trkpt lat="48.70702" lon="1.75732">
        <ele>174</ele>
        <time>2011-08-04T12:39:36.000Z</time>
      </trkpt>
      <trkpt lat="48.70703" lon="1.75733">
        <ele>174</ele>
        <time>2011-08-04T12:39:37.000Z</time>
      </trkpt>
      <trkpt lat="48.70707" lon="1.7574">
        <ele>174</ele>
        <time>2011-08-04T12:39:41.000Z</time>
      </trkpt>
      <trkpt lat="48.70708" lon="1.75742">
        <ele>174</ele>
        <time>2011-08-04T12:39:42.000Z</time>
      </trkpt>
      <trkpt lat="48.70716" lon="1.75752">
        <ele>173.80000305176</ele>
        <time>2011-08-04T12:39:51.000Z</time>
      </trkpt>
      <trkpt lat="48.70722" lon="1.7576">
        <ele>173.80000305176</ele>
        <time>2011-08-04T12:39:58.000Z</time>
      </trkpt>
      <trkpt lat="48.70725" lon="1.75765">
        <ele>173.60000610352</ele>
        <time>2011-08-04T12:40:02.000Z</time>
      </trkpt>
      <trkpt lat="48.70725" lon="1.75766">
        <ele>173.60000610352</ele>
        <time>2011-08-04T12:40:05.000Z</time>
      </trkpt>
      <trkpt lat="48.70727" lon="1.75769">
        <ele>173.60000610352</ele>
        <time>2011-08-04T12:40:21.000Z</time>
      </trkpt>
      <trkpt lat="48.70731" lon="1.75774">
        <ele>173.60000610352</ele>
        <time>2011-08-04T12:40:26.000Z</time>
      </trkpt>
    </trkseg>
  </trk>
</gpx>